Observation data for Dozier on 01/19/2019      Previous  Date  Next       Current Mesonet Observations  Soil Data  Daily Summary Page  Observations in Plain Language
KDO1 190600Z 00031G42KT 01/M03 A2996 RMK A01 T00111033  RH  073%=      5-min Rain = 0
KDO1 190601Z 35024G36KT 01/M03 A2996 RMK A01 T00101033  RH  073%=      5-min Rain = 0
KDO1 190602Z 35035G45KT 01/M03 A2996 RMK A01 T00101034  RH  073%=      5-min Rain = 0
KDO1 190603Z 35026G36KT 01/M03 A2997 RMK A01 T00111034  RH  072%=      5-min Rain = 0
KDO1 190604Z 35027G40KT 01/M03 A2996 RMK A01 T00111033  RH  073%=      5-min Rain = 0
KDO1 190605Z 35026G32KT 01/M03 A2996 RMK A01 T00101033  RH  073%=      5-min Rain = 0
KDO1 190606Z 35022G31KT 01/M03 A2996 RMK A01 T00111033  RH  073%=      5-min Rain = 0
KDO1 190607Z 35029G38KT 01/M03 A2996 RMK A01 T00111033  RH  073%=      5-min Rain = 0
KDO1 190608Z 35026G37KT 01/M03 A2996 RMK A01 T00101033  RH  073%=      5-min Rain = 0
KDO1 190609Z 36032G38KT 01/M03 A2996 RMK A01 T00111033  RH  073%=      5-min Rain = 0
KDO1 190610Z 35028G33KT 01/M03 A2996 RMK A01 T00101033  RH  073%=      5-min Rain = 0
KDO1 190611Z 35028G38KT 01/M03 A2996 RMK A01 T00101033  RH  073%=      5-min Rain = 0
KDO1 190612Z 36033G39KT 01/M03 A2997 RMK A01 T00111032  RH  073%=      5-min Rain = 0
KDO1 190613Z 36026G36KT 01/M03 A2997 RMK A01 T00111033  RH  073%=      5-min Rain = 0
KDO1 190614Z 36026G36KT 01/M03 A2997 RMK A01 T00101033  RH  073%=      5-min Rain = 0
KDO1 190615Z 35029G35KT 01/M03 A2997 RMK A01 T00111032  RH  073%=      5-min Rain = 0
KDO1 190616Z 36031G41KT 01/M03 A2997 RMK A01 T00101033  RH  073%=      5-min Rain = 0
KDO1 190617Z 35028G38KT 01/M03 A2997 RMK A01 T00101033  RH  073%=      5-min Rain = 0
KDO1 190618Z 00030G39KT 01/M03 A2997 RMK A01 T00111033  RH  073%=      5-min Rain = 0
KDO1 190619Z 35024G31KT 01/M03 A2997 RMK A01 T00101033  RH  073%=      5-min Rain = 0
KDO1 190620Z 35022G31KT 01/M03 A2997 RMK A01 T00111033  RH  073%=      5-min Rain = 0
KDO1 190621Z 36028G38KT 01/M03 A2997 RMK A01 T00101033  RH  073%=      5-min Rain = 0
KDO1 190622Z 35026G33KT 01/M03 A2997 RMK A01 T00111033  RH  073%=      5-min Rain = 0
KDO1 190623Z 35028G35KT 01/M03 A2997 RMK A01 T00101033  RH  073%=      5-min Rain = 0
KDO1 190624Z 36029G36KT 01/M03 A2998 RMK A01 T00101033  RH  073%=      5-min Rain = 0
KDO1 190625Z 35029G37KT 01/M03 A2997 RMK A01 T00111032  RH  073%=      5-min Rain = 0
KDO1 190626Z 35027G32KT 01/M03 A2998 RMK A01 T00101033  RH  073%=      5-min Rain = 0
KDO1 190627Z 35027G36KT 01/M03 A2998 RMK A01 T00111032  RH  073%=      5-min Rain = 0
KDO1 190628Z 35028G37KT 01/M03 A2998 RMK A01 T00101032  RH  073%=      5-min Rain = 0
KDO1 190629Z 35026G33KT 01/M03 A2998 RMK A01 T00101032  RH  073%=      5-min Rain = 0
KDO1 190630Z 35025G35KT 01/M03 A2998 RMK A01 T00101032  RH  074%=      5-min Rain = 0
KDO1 190631Z 35025G36KT 01/M03 A2998 RMK A01 T00101032  RH  074%=      5-min Rain = 0
KDO1 190632Z 35027G37KT 01/M03 A2998 RMK A01 T00101031  RH  074%=      5-min Rain = 0
KDO1 190633Z 35030G37KT 01/M03 A2998 RMK A01 T00101032  RH  074%=      5-min Rain = 0
KDO1 190634Z 36023G28KT 01/M03 A2999 RMK A01 T00101032  RH  074%=      5-min Rain = 0
KDO1 190635Z 35026G33KT 01/M03 A2999 RMK A01 T00101032  RH  074%=      5-min Rain = 0
KDO1 190636Z 35029KT 01/M03 A2998 RMK A01 T00101032  RH  074%=      5-min Rain = 0
KDO1 190637Z 35023G30KT 01/M03 A2999 RMK A01 T00101032  RH  074%=      5-min Rain = 0
KDO1 190638Z 34023G32KT 01/M03 A2999 RMK A01 T00111031  RH  074%=      5-min Rain = 0
KDO1 190639Z 34026G33KT 01/M03 A2999 RMK A01 T00111031  RH  074%=      5-min Rain = 0
KDO1 190640Z 35022G28KT 01/M03 A2999 RMK A01 T00111031  RH  073%=      5-min Rain = 0
KDO1 190641Z 35021KT 01/M03 A30 RMK A01 T00111031  RH  073%=      5-min Rain = 0
KDO1 190642Z 34020G30KT 01/M03 A2999 RMK A01 T00111031  RH  074%=      5-min Rain = 0
KDO1 190643Z 35025G32KT 01/M03 A2999 RMK A01 T00111031  RH  074%=      5-min Rain = 0
KDO1 190644Z 35024G30KT 01/M03 A30 RMK A01 T00121030  RH  073%=      5-min Rain = 0
KDO1 190645Z 34027G34KT 01/M03 A30 RMK A01 T00121031  RH  073%=      5-min Rain = 0
KDO1 190646Z 34024G33KT 01/M03 A30 RMK A01 T00121031  RH  073%=      5-min Rain = 0
KDO1 190647Z 34018G23KT 01/M03 A30 RMK A01 T00121031  RH  073%=      5-min Rain = 0
KDO1 190648Z 34018G24KT 01/M03 A30 RMK A01 T00121031  RH  073%=      5-min Rain = 0
KDO1 190649Z 35020G31KT 01/M03 A30 RMK A01 T00121031  RH  073%=      5-min Rain = 0
KDO1 190650Z 34022G28KT 01/M03 A30 RMK A01 T00121031  RH  073%=      5-min Rain = 0
KDO1 190651Z 34021G27KT 01/M03 A30 RMK A01 T00121031  RH  073%=      5-min Rain = 0
KDO1 190652Z 34027G32KT 01/M03 A30 RMK A01 T00121031  RH  073%=      5-min Rain = 0
KDO1 190653Z 34025G33KT 01/M03 A30 RMK A01 T00121031  RH  073%=      5-min Rain = 0
KDO1 190654Z 34025G32KT 01/M03 A30 RMK A01 T00131030  RH  073%=      5-min Rain = 0
KDO1 190655Z 35022G27KT 01/M03 A30 RMK A01 T00121031  RH  073%=      5-min Rain = 0
KDO1 190656Z 34022G30KT 01/M03 A3001 RMK A01 T00121031  RH  073%=      5-min Rain = 0
KDO1 190657Z 34022G30KT 01/M03 A30 RMK A01 T00121030  RH  073%=      5-min Rain = 0
KDO1 190658Z 34021G29KT 01/M03 A3001 RMK A01 T00121030  RH  073%=      5-min Rain = 0
KDO1 190659Z 35021G30KT 01/M03 A3001 RMK A01 T00121030  RH  073%=      5-min Rain = 0
KDO1 190700Z 34022G29KT 01/M03 A3001 RMK A01 T00121030  RH  073%=      5-min Rain = 0
KDO1 190701Z 34025G34KT 01/M03 A3001 RMK A01 T00121030  RH  073%=      5-min Rain = 0
KDO1 190702Z 35026KT 01/M03 A3001 RMK A01 T00121030  RH  073%=      5-min Rain = 0
KDO1 190703Z 34025G30KT 01/M03 A3001 RMK A01 T00131030  RH  073%=      5-min Rain = 0
KDO1 190704Z 34029G35KT 01/M03 A3001 RMK A01 T00131031  RH  073%=      5-min Rain = 0
KDO1 190705Z 35028G34KT 01/M03 A3001 RMK A01 T00131031  RH  073%=      5-min Rain = 0
KDO1 190706Z 34028G35KT 01/M03 A3001 RMK A01 T00131030  RH  073%=      5-min Rain = 0
KDO1 190707Z 34023G30KT 01/M03 A3001 RMK A01 T00131030  RH  073%=      5-min Rain = 0
KDO1 190708Z 35020KT 01/M03 A3001 RMK A01 T00131030  RH  073%=      5-min Rain = 0
KDO1 190709Z 34020G31KT 01/M03 A3001 RMK A01 T00131030  RH  073%=      5-min Rain = 0
KDO1 190710Z 34025G33KT 01/M03 A3001 RMK A01 T00131030  RH  073%=      5-min Rain = 0
KDO1 190711Z 35023G29KT 01/M03 A3001 RMK A01 T00131030  RH  073%=      5-min Rain = 0
KDO1 190712Z 35026G32KT 01/M03 A3001 RMK A01 T00131030  RH  073%=      5-min Rain = 0
KDO1 190713Z 35025KT 01/M03 A3001 RMK A01 T00131030  RH  073%=      5-min Rain = 0
KDO1 190714Z 35021G30KT 01/M03 A3001 RMK A01 T00131030  RH  073%=      5-min Rain = 0
KDO1 190715Z 35023G29KT 01/M03 A3001 RMK A01 T00141029  RH  073%=      5-min Rain = 0
KDO1 190716Z 35019G25KT 01/M03 A3001 RMK A01 T00131029  RH  073%=      5-min Rain = 0
KDO1 190717Z 35021KT 01/M03 A3001 RMK A01 T00131029  RH  073%=      5-min Rain = 0
KDO1 190718Z 35019G26KT 01/M03 A3001 RMK A01 T00131029  RH  073%=      5-min Rain = 0
KDO1 190719Z 35022G27KT 01/M03 A3001 RMK A01 T00131029  RH  073%=      5-min Rain = 0
KDO1 190720Z 34019G27KT 01/M03 A3001 RMK A01 T00131029  RH  073%=      5-min Rain = 0
KDO1 190721Z 34025G35KT 01/M03 A3001 RMK A01 T00131029  RH  073%=      5-min Rain = 0
KDO1 190722Z 34025G34KT 01/M03 A3001 RMK A01 T00141029  RH  073%=      5-min Rain = 0
KDO1 190723Z 34023G30KT 01/M03 A3001 RMK A01 T00141029  RH  073%=      5-min Rain = 0
KDO1 190724Z 35024KT 01/M03 A3001 RMK A01 T00141029  RH  073%=      5-min Rain = 0
KDO1 190725Z 34026G32KT 01/M03 A3001 RMK A01 T00141029  RH  073%=      5-min Rain = 0
KDO1 190726Z 34022G28KT 01/M03 A3001 RMK A01 T00141028  RH  073%=      5-min Rain = 0
KDO1 190727Z 35019G30KT 01/M03 A3001 RMK A01 T00141028  RH  074%=      5-min Rain = 0
KDO1 190728Z 34025G32KT 01/M03 A3001 RMK A01 T00141028  RH  074%=      5-min Rain = 0
KDO1 190729Z 35022G28KT 01/M03 A3001 RMK A01 T00141028  RH  073%=      5-min Rain = 0
KDO1 190730Z 34021G34KT 01/M03 A3002 RMK A01 T00141028  RH  074%=      5-min Rain = 0
KDO1 190731Z 35024G34KT 01/M03 A3002 RMK A01 T00141028  RH  074%=      5-min Rain = 0
KDO1 190732Z 34025G35KT 01/M03 A3001 RMK A01 T00141028  RH  074%=      5-min Rain = 0
KDO1 190733Z 35023G29KT 02/M03 A3002 RMK A01 T00151027  RH  074%=      5-min Rain = 0
KDO1 190734Z 34021G26KT 02/M03 A3002 RMK A01 T00151027  RH  074%=      5-min Rain = 0
KDO1 190735Z 34023G31KT 02/M03 A3002 RMK A01 T00151027  RH  074%=      5-min Rain = 0
KDO1 190736Z 34024G32KT 02/M03 A3002 RMK A01 T00151026  RH  074%=      5-min Rain = 0
KDO1 190737Z 34029G35KT 02/M03 A3002 RMK A01 T00151027  RH  074%=      5-min Rain = 0
KDO1 190738Z 34029G38KT 02/M03 A3002 RMK A01 T00151026  RH  074%=      5-min Rain = 0
KDO1 190739Z 33027G33KT 02/M03 A3002 RMK A01 T00151026  RH  074%=      5-min Rain = 0
KDO1 190740Z 34024G29KT 02/M03 A3002 RMK A01 T00151025  RH  075%=      5-min Rain = 0
KDO1 190741Z 34021G32KT 02/M03 A3002 RMK A01 T00151025  RH  075%=      5-min Rain = 0
KDO1 190742Z 34023G31KT 02/M03 A3002 RMK A01 T00151025  RH  075%=      5-min Rain = 0
KDO1 190743Z 34027G33KT 02/M03 A3002 RMK A01 T00151025  RH  075%=      5-min Rain = 0
KDO1 190744Z 34023G29KT 02/M02 A3003 RMK A01 T00151024  RH  075%=      5-min Rain = 0
KDO1 190745Z 34024G31KT 02/M02 A3003 RMK A01 T00151024  RH  075%=      5-min Rain = 0
KDO1 190746Z 34023G31KT 02/M02 A3003 RMK A01 T00151024  RH  075%=      5-min Rain = 0
KDO1 190747Z 34023G31KT 02/M02 A3003 RMK A01 T00151024  RH  075%=      5-min Rain = 0
KDO1 190748Z 34021G28KT 02/M02 A3003 RMK A01 T00151024  RH  075%=      5-min Rain = 0
KDO1 190749Z 34021G29KT 02/M02 A3003 RMK A01 T00151024  RH  075%=      5-min Rain = 0
KDO1 190750Z 33025KT 02/M03 A3003 RMK A01 T00151026  RH  075%=      5-min Rain = 0
KDO1 190751Z 35022G28KT 01/M03 A3003 RMK A01 T00141027  RH  074%=      5-min Rain = 0
KDO1 190752Z 34019G24KT 01/M03 A3003 RMK A01 T00141027  RH  074%=      5-min Rain = 0
KDO1 190753Z 34020G25KT 01/M03 A3003 RMK A01 T00141027  RH  074%=      5-min Rain = 0
KDO1 190754Z 34022G29KT 01/M03 A3003 RMK A01 T00141027  RH  074%=      5-min Rain = 0
KDO1 190755Z 34018KT 01/M03 A3003 RMK A01 T00141026  RH  074%=      5-min Rain = 0
KDO1 190756Z 34019G24KT 01/M03 A3003 RMK A01 T00141027  RH  074%=      5-min Rain = 0
KDO1 190757Z 33019G25KT 01/M03 A3003 RMK A01 T00141027  RH  074%=      5-min Rain = 0
KDO1 190758Z 33018KT 01/M03 A3003 RMK A01 T00141026  RH  075%=      5-min Rain = 0
KDO1 190759Z 33021G26KT 01/M03 A3003 RMK A01 T00131026  RH  075%=      5-min Rain = 0
KDO1 190800Z 34022G28KT 01/M03 A3003 RMK A01 T00131027  RH  075%=      5-min Rain = 0
KDO1 190801Z 34026G35KT 01/M03 A3003 RMK A01 T00131027  RH  075%=      5-min Rain = 0
KDO1 190802Z 33024KT 01/M03 A3003 RMK A01 T00131029  RH  074%=      5-min Rain = 0
KDO1 190803Z 34020G28KT 01/M03 A3003 RMK A01 T00121030  RH  073%=      5-min Rain = 0
KDO1 190804Z 34027G33KT 01/M03 A3003 RMK A01 T00121031  RH  073%=      5-min Rain = 0
KDO1 190805Z 34024G30KT 01/M03 A3003 RMK A01 T00121032  RH  072%=      5-min Rain = 0
KDO1 190806Z 33026G32KT 01/M03 A3003 RMK A01 T00121033  RH  072%=      5-min Rain = 0
KDO1 190807Z 33022G34KT 01/M03 A3004 RMK A01 T00111034  RH  072%=      5-min Rain = 0
KDO1 190808Z 34022G33KT 01/M04 A3004 RMK A01 T00101035  RH  072%=      5-min Rain = 0
KDO1 190809Z 34027G35KT 01/M04 A3004 RMK A01 T00091036  RH  072%=      5-min Rain = 0
KDO1 190810Z 35023G34KT 01/M04 A3004 RMK A01 T00091036  RH  072%=      5-min Rain = 0
KDO1 190811Z 34022G28KT 01/M04 A3004 RMK A01 T00091036  RH  072%=      5-min Rain = 0
KDO1 190812Z 33028G33KT 01/M04 A3004 RMK A01 T00081036  RH  072%=      5-min Rain = 0
KDO1 190813Z 33024G30KT 01/M04 A3004 RMK A01 T00081038  RH  071%=      5-min Rain = 0
KDO1 190814Z 34027G34KT 01/M04 A3004 RMK A01 T00081039  RH  071%=      5-min Rain = 0
KDO1 190815Z 34028KT 01/M04 A3005 RMK A01 T00071039  RH  071%=      5-min Rain = 0
KDO1 190816Z 34025G33KT 01/M04 A3005 RMK A01 T00071040  RH  071%=      5-min Rain = 0
KDO1 190817Z 35027G32KT 01/M04 A3005 RMK A01 T00071040  RH  071%=      5-min Rain = 0
KDO1 190818Z 34026KT 01/M04 A3005 RMK A01 T00061040  RH  071%=      5-min Rain = 0
KDO1 190819Z 34021G26KT 01/M04 A3005 RMK A01 T00071040  RH  071%=      5-min Rain = 0
KDO1 190820Z 34023G28KT 01/M04 A3005 RMK A01 T00061040  RH  071%=      5-min Rain = 0
KDO1 190821Z 34019G25KT 01/M04 A3005 RMK A01 T00061040  RH  071%=      5-min Rain = 0
KDO1 190822Z 34023KT 01/M04 A3005 RMK A01 T00061040  RH  071%=      5-min Rain = 0
KDO1 190823Z 34022G28KT 01/M04 A3005 RMK A01 T00051041  RH  071%=      5-min Rain = 0
KDO1 190824Z 34025KT 01/M04 A3006 RMK A01 T00051041  RH  071%=      5-min Rain = 0
KDO1 190825Z 35025G32KT 01/M04 A3006 RMK A01 T00051041  RH  071%=      5-min Rain = 0
KDO1 190826Z 34025G32KT 01/M04 A3006 RMK A01 T00061041  RH  071%=      5-min Rain = 0
KDO1 190827Z 34025G33KT 01/M04 A3006 RMK A01 T00061042  RH  071%=      5-min Rain = 0
KDO1 190828Z 34021G27KT 01/M04 A3006 RMK A01 T00051042  RH  071%=      5-min Rain = 0
KDO1 190829Z 34017KT 01/M04 A3006 RMK A01 T00051042  RH  071%=      5-min Rain = 0
KDO1 190830Z 34022G31KT 01/M04 A3006 RMK A01 T00051042  RH  071%=      5-min Rain = 0
KDO1 190831Z 34025G30KT 01/M04 A3006 RMK A01 T00051043  RH  070%=      5-min Rain = 0
KDO1 190832Z 33020G25KT 01/M04 A3007 RMK A01 T00051043  RH  070%=      5-min Rain = 0
KDO1 190833Z 35021KT 00/M04 A3007 RMK A01 T00041043  RH  070%=      5-min Rain = 0
KDO1 190834Z 34021G29KT 00/M04 A3007 RMK A01 T00041044  RH  070%=      5-min Rain = 0
KDO1 190835Z 33024KT 00/M05 A3007 RMK A01 T00041045  RH  070%=      5-min Rain = 0
KDO1 190836Z 33026G35KT 00/M05 A3007 RMK A01 T00031047  RH  069%=      5-min Rain = 0
KDO1 190837Z 34028G34KT 00/M05 A3007 RMK A01 T00031049  RH  068%=      5-min Rain = 0
KDO1 190838Z 34026G34KT 00/M05 A3007 RMK A01 T00021050  RH  068%=      5-min Rain = 0
KDO1 190839Z 34025G38KT 00/M05 A3008 RMK A01 T00021050  RH  068%=      5-min Rain = 0
KDO1 190840Z 34027G32KT 00/M05 A3008 RMK A01 T00021051  RH  068%=      5-min Rain = 0
KDO1 190841Z 34026KT 00/M05 A3008 RMK A01 T00011052  RH  067%=      5-min Rain = 0
KDO1 190842Z 35025G31KT 00/M05 A3008 RMK A01 T00011052  RH  067%=      5-min Rain = 0
KDO1 190843Z 35020G25KT 00/M05 A3008 RMK A01 T00011052  RH  067%=      5-min Rain = 0
KDO1 190844Z 35017G23KT 00/05 A3009 RMK A01 T00000-52  RH  068%=      5-min Rain = 0
KDO1 190845Z 34017G22KT 00/05 A3009 RMK A01 T00000-52  RH  068%=      5-min Rain = 0
KDO1 190846Z 34023G31KT 00/05 A3008 RMK A01 T00000-53  RH  068%=      5-min Rain = 0
KDO1 190847Z 33016KT 00/05 A3009 RMK A01 T00-00-53  RH  068%=      5-min Rain = 0
KDO1 190848Z 35021G27KT 00/05 A3009 RMK A01 T00-00-53  RH  068%=      5-min Rain = 0
KDO1 190849Z 35021KT M00/M05 A3009 RMK A01 T10011054  RH  067%=      5-min Rain = 0
KDO1 190850Z 34025G31KT M00/M06 A3009 RMK A01 T10011055  RH  067%=      5-min Rain = 0
KDO1 190851Z 34021G26KT M00/M06 A3009 RMK A01 T10011056  RH  067%=      5-min Rain = 0
KDO1 190852Z 34021G27KT M00/M06 A3009 RMK A01 T10021056  RH  067%=      5-min Rain = 0
KDO1 190853Z 34022G27KT M00/M06 A3009 RMK A01 T10021056  RH  067%=      5-min Rain = 0
KDO1 190854Z 35025G32KT M00/M06 A3009 RMK A01 T10021056  RH  067%=      5-min Rain = 0
KDO1 190855Z 35024G31KT M00/M06 A3009 RMK A01 T10021057  RH  067%=      5-min Rain = 0
KDO1 190856Z 35023G29KT M00/M06 A3009 RMK A01 T10031057  RH  067%=      5-min Rain = 0
KDO1 190857Z 35024G30KT M00/M06 A301 RMK A01 T10031058  RH  067%=      5-min Rain = 0
KDO1 190858Z 35024KT M00/M06 A301 RMK A01 T10041058  RH  067%=      5-min Rain = 0
KDO1 190859Z 35020KT M01/M06 A301 RMK A01 T10051058  RH  067%=      5-min Rain = 0
KDO1 190900Z 34018G23KT M01/M06 A301 RMK A01 T10051058  RH  067%=      5-min Rain = 0
KDO1 190901Z 34023KT M01/M06 A301 RMK A01 T10051058  RH  068%=      5-min Rain = 0
KDO1 190902Z 34021G26KT M01/M06 A301 RMK A01 T10051058  RH  068%=      5-min Rain = 0
KDO1 190903Z 34019G24KT M01/M06 A301 RMK A01 T10061057  RH  068%=      5-min Rain = 0
KDO1 190904Z 34019G24KT M01/M06 A301 RMK A01 T10061057  RH  068%=      5-min Rain = 0
KDO1 190905Z 34017KT M01/M06 A301 RMK A01 T10061057  RH  069%=      5-min Rain = 0
KDO1 190906Z 34018KT M01/M06 A301 RMK A01 T10061056  RH  069%=      5-min Rain = 0
KDO1 190907Z 34018G23KT M01/M06 A301 RMK A01 T10061056  RH  069%=      5-min Rain = 0
KDO1 190908Z 34014KT M01/M06 A301 RMK A01 T10061056  RH  069%=      5-min Rain = 0
KDO1 190909Z 34013KT M01/M06 A301 RMK A01 T10061055  RH  069%=      5-min Rain = 0
KDO1 190910Z 34014KT M01/M06 A301 RMK A01 T10061055  RH  070%=      5-min Rain = 0
KDO1 190911Z 33019G25KT M01/M05 A301 RMK A01 T10061054  RH  070%=      5-min Rain = 0
KDO1 190912Z 34019G24KT M01/M05 A301 RMK A01 T10061054  RH  070%=      5-min Rain = 0
KDO1 190913Z 33021G26KT M01/M05 A301 RMK A01 T10071054  RH  070%=      5-min Rain = 0
KDO1 190914Z 34016G21KT M01/M05 A301 RMK A01 T10061053  RH  070%=      5-min Rain = 0
KDO1 190915Z 34016G24KT M01/M05 A301 RMK A01 T10061053  RH  071%=      5-min Rain = 0
KDO1 190916Z 34018G23KT M01/M05 A301 RMK A01 T10061053  RH  071%=      5-min Rain = 0
KDO1 190917Z 34018G26KT M01/M05 A301 RMK A01 T10071053  RH  071%=      5-min Rain = 0
KDO1 190918Z 35022G28KT M01/M05 A301 RMK A01 T10061054  RH  070%=      5-min Rain = 0
KDO1 190919Z 34019G25KT M01/M05 A301 RMK A01 T10061054  RH  070%=      5-min Rain = 0
KDO1 190920Z 34023G28KT M01/M05 A301 RMK A01 T10071054  RH  070%=      5-min Rain = 0
KDO1 190921Z 34016G23KT M01/M05 A3011 RMK A01 T10071054  RH  070%=      5-min Rain = 0
KDO1 190922Z 34016G21KT M01/M05 A3011 RMK A01 T10071054  RH  071%=      5-min Rain = 0
KDO1 190923Z 33014G22KT M01/M05 A3011 RMK A01 T10071054  RH  071%=      5-min Rain = 0
KDO1 190924Z 34017G22KT M01/M05 A3011 RMK A01 T10071054  RH  071%=      5-min Rain = 0
KDO1 190925Z 34020G27KT M01/M05 A3011 RMK A01 T10071054  RH  071%=      5-min Rain = 0
KDO1 190926Z 35017G27KT M01/M06 A3011 RMK A01 T10081055  RH  070%=      5-min Rain = 0
KDO1 190927Z 35013G21KT M01/M05 A3011 RMK A01 T10081054  RH  071%=      5-min Rain = 0
KDO1 190928Z 35019G30KT M01/M05 A3011 RMK A01 T10081054  RH  071%=      5-min Rain = 0
KDO1 190929Z 35020G26KT M01/M06 A3011 RMK A01 T10081055  RH  071%=      5-min Rain = 0
KDO1 190930Z 35020G25KT M01/M06 A3011 RMK A01 T10091055  RH  071%=      5-min Rain = 0
KDO1 190931Z 34023G28KT M01/M06 A3011 RMK A01 T10091056  RH  071%=      5-min Rain = 0
KDO1 190932Z 35021G26KT M01/M06 A3011 RMK A01 T10101056  RH  071%=      5-min Rain = 0
KDO1 190933Z 35024G30KT M01/M06 A3011 RMK A01 T10101056  RH  071%=      5-min Rain = 0
KDO1 190934Z 35019G25KT M01/M06 A3011 RMK A01 T10101057  RH  071%=      5-min Rain = 0
KDO1 190935Z 34017G22KT M01/M06 A3012 RMK A01 T10101056  RH  071%=      5-min Rain = 0
KDO1 190936Z 34025KT M01/M06 A3012 RMK A01 T10101056  RH  071%=      5-min Rain = 0
KDO1 190937Z 34024KT M01/M06 A3012 RMK A01 T10101056  RH  071%=      5-min Rain = 0
KDO1 190938Z 34020G27KT M01/M06 A3012 RMK A01 T10101056  RH  071%=      5-min Rain = 0
KDO1 190939Z 34020KT M01/M06 A3012 RMK A01 T10101056  RH  071%=      5-min Rain = 0
KDO1 190940Z 34020KT M01/M06 A3012 RMK A01 T10101056  RH  071%=      5-min Rain = 0
KDO1 190941Z 34018G23KT M01/M06 A3012 RMK A01 T10111056  RH  071%=      5-min Rain = 0
KDO1 190942Z 34017KT M01/M06 A3012 RMK A01 T10111056  RH  072%=      5-min Rain = 0
KDO1 190943Z 34020G26KT M01/M06 A3012 RMK A01 T10101055  RH  072%=      5-min Rain = 0
KDO1 190944Z 34016G23KT M01/M06 A3012 RMK A01 T10111055  RH  072%=      5-min Rain = 0
KDO1 190945Z 34013G18KT M01/M06 A3012 RMK A01 T10111055  RH  072%=      5-min Rain = 0
KDO1 190946Z 33024G29KT M01/M06 A3012 RMK A01 T10111055  RH  072%=      5-min Rain = 0
KDO1 190947Z 34020G28KT M01/M06 A3012 RMK A01 T10111056  RH  071%=      5-min Rain = 0
KDO1 190948Z 34025G30KT M01/M06 A3012 RMK A01 T10111056  RH  071%=      5-min Rain = 0
KDO1 190949Z 34021G26KT M01/M06 A3013 RMK A01 T10111056  RH  071%=      5-min Rain = 0
KDO1 190950Z 34021G26KT M01/M06 A3013 RMK A01 T10111056  RH  071%=      5-min Rain = 0
KDO1 190951Z 34019KT M01/M06 A3013 RMK A01 T10111056  RH  072%=      5-min Rain = 0
KDO1 190952Z 33018G26KT M01/M06 A3013 RMK A01 T10111056  RH  072%=      5-min Rain = 0
KDO1 190953Z 35018G27KT M01/M06 A3013 RMK A01 T10111056  RH  072%=      5-min Rain = 0
KDO1 190954Z 34016KT M01/M06 A3013 RMK A01 T10111056  RH  072%=      5-min Rain = 0
KDO1 190955Z 34022G29KT M01/M06 A3013 RMK A01 T10121056  RH  072%=      5-min Rain = 0
KDO1 190956Z 34020KT M01/M06 A3013 RMK A01 T10121057  RH  071%=      5-min Rain = 0
KDO1 190957Z 34017KT M01/M06 A3013 RMK A01 T10121057  RH  071%=      5-min Rain = 0
KDO1 190958Z 34017G23KT M01/M06 A3013 RMK A01 T10121057  RH  071%=      5-min Rain = 0
KDO1 190959Z 33015G23KT M01/M06 A3013 RMK A01 T10121057  RH  072%=      5-min Rain = 0
KDO1 191000Z 34020G26KT M01/M06 A3013 RMK A01 T10121057  RH  072%=      5-min Rain = 0
KDO1 191001Z 34020G29KT M01/M06 A3013 RMK A01 T10121057  RH  071%=      5-min Rain = 0
KDO1 191002Z 34023G31KT M01/M06 A3013 RMK A01 T10121057  RH  071%=      5-min Rain = 0
KDO1 191003Z 34024G32KT M01/M06 A3013 RMK A01 T10121058  RH  071%=      5-min Rain = 0
KDO1 191004Z 33021G27KT M01/M06 A3013 RMK A01 T10121058  RH  071%=      5-min Rain = 0
KDO1 191005Z 33023G28KT M01/M06 A3013 RMK A01 T10121058  RH  071%=      5-min Rain = 0
KDO1 191006Z 34022G29KT M01/M06 A3013 RMK A01 T10121058  RH  071%=      5-min Rain = 0
KDO1 191007Z 35024G32KT M01/M06 A3013 RMK A01 T10121059  RH  070%=      5-min Rain = 0
KDO1 191008Z 34020G26KT M01/M06 A3013 RMK A01 T10121059  RH  070%=      5-min Rain = 0
KDO1 191009Z 34023G32KT M01/M06 A3013 RMK A01 T10121060  RH  070%=      5-min Rain = 0
KDO1 191010Z 34024G29KT M01/M06 A3013 RMK A01 T10121060  RH  070%=      5-min Rain = 0
KDO1 191011Z 35022G28KT M01/M06 A3013 RMK A01 T10121060  RH  070%=      5-min Rain = 0
KDO1 191012Z 34023G30KT M01/M06 A3013 RMK A01 T10131060  RH  070%=      5-min Rain = 0
KDO1 191013Z 34025G32KT M01/M06 A3013 RMK A01 T10131060  RH  070%=      5-min Rain = 0
KDO1 191014Z 34022G28KT M01/M06 A3013 RMK A01 T10131061  RH  070%=      5-min Rain = 0
KDO1 191015Z 34019KT M01/M06 A3013 RMK A01 T10131060  RH  070%=      5-min Rain = 0
KDO1 191016Z 34015G20KT M01/M06 A3013 RMK A01 T10131059  RH  070%=      5-min Rain = 0
KDO1 191017Z 34021G26KT M01/M06 A3013 RMK A01 T10131060  RH  071%=      5-min Rain = 0
KDO1 191018Z 34022G27KT M01/M06 A3013 RMK A01 T10131060  RH  071%=      5-min Rain = 0
KDO1 191019Z 34022G27KT M01/M06 A3013 RMK A01 T10131060  RH  071%=      5-min Rain = 0
KDO1 191020Z 34019G25KT M01/M06 A3014 RMK A01 T10131059  RH  071%=      5-min Rain = 0
KDO1 191021Z 34019G24KT M01/M06 A3014 RMK A01 T10131059  RH  071%=      5-min Rain = 0
KDO1 191022Z 34019KT M01/M06 A3014 RMK A01 T10131059  RH  071%=      5-min Rain = 0
KDO1 191023Z 35018G25KT M01/M06 A3014 RMK A01 T10131059  RH  071%=      5-min Rain = 0
KDO1 191024Z 34020G26KT M01/M06 A3013 RMK A01 T10131059  RH  071%=      5-min Rain = 0
KDO1 191025Z 35018KT M01/M06 A3014 RMK A01 T10131059  RH  071%=      5-min Rain = 0
KDO1 191026Z 35016KT M01/M06 A3014 RMK A01 T10131058  RH  071%=      5-min Rain = 0
KDO1 191027Z 34017KT M01/M06 A3014 RMK A01 T10131058  RH  072%=      5-min Rain = 0
KDO1 191028Z 35015G20KT M01/M06 A3014 RMK A01 T10141058  RH  072%=      5-min Rain = 0
KDO1 191029Z 35017G25KT M01/M06 A3014 RMK A01 T10141058  RH  072%=      5-min Rain = 0
KDO1 191030Z 35019G24KT M01/M06 A3013 RMK A01 T10141058  RH  072%=      5-min Rain = 0
KDO1 191031Z 35018KT M01/M06 A3014 RMK A01 T10141058  RH  072%=      5-min Rain = 0
KDO1 191032Z 34018G23KT M01/M06 A3014 RMK A01 T10141058  RH  072%=      5-min Rain = 0
KDO1 191033Z 35017G25KT M01/M06 A3014 RMK A01 T10141058  RH  072%=      5-min Rain = 0
KDO1 191034Z 35020KT M01/M06 A3014 RMK A01 T10141058  RH  072%=      5-min Rain = 0
KDO1 191035Z 35020G26KT M01/M06 A3013 RMK A01 T10141058  RH  072%=      5-min Rain = 0
KDO1 191036Z 35018KT M01/M06 A3014 RMK A01 T10141058  RH  072%=      5-min Rain = 0
KDO1 191037Z 35015KT M01/M06 A3014 RMK A01 T10141058  RH  072%=      5-min Rain = 0
KDO1 191038Z 34015KT M01/M06 A3014 RMK A01 T10141057  RH  072%=      5-min Rain = 0
KDO1 191039Z 35015KT M01/M06 A3014 RMK A01 T10141057  RH  073%=      5-min Rain = 0
KDO1 191040Z 34014KT M01/M06 A3014 RMK A01 T10141057  RH  073%=      5-min Rain = 0
KDO1 191041Z 34016KT M01/M06 A3014 RMK A01 T10141056  RH  073%=      5-min Rain = 0
KDO1 191042Z 34015KT M01/M06 A3014 RMK A01 T10141056  RH  073%=      5-min Rain = 0
KDO1 191043Z 34018KT M01/M06 A3014 RMK A01 T10141056  RH  073%=      5-min Rain = 0
KDO1 191044Z 34014G19KT M01/M06 A3014 RMK A01 T10141056  RH  073%=      5-min Rain = 0
KDO1 191045Z 33021G27KT M01/M06 A3014 RMK A01 T10141057  RH  073%=      5-min Rain = 0
KDO1 191046Z 34019G25KT M01/M06 A3014 RMK A01 T10141057  RH  072%=      5-min Rain = 0
KDO1 191047Z 34020KT M01/M06 A3014 RMK A01 T10141057  RH  072%=      5-min Rain = 0
KDO1 191048Z 34015KT M01/M06 A3014 RMK A01 T10141057  RH  072%=      5-min Rain = 0
KDO1 191049Z 35023G28KT M01/M06 A3014 RMK A01 T10141058  RH  072%=      5-min Rain = 0
KDO1 191050Z 34020G25KT M02/M06 A3014 RMK A01 T10151060  RH  071%=      5-min Rain = 0
KDO1 191051Z 34021KT M02/M06 A3014 RMK A01 T10151060  RH  071%=      5-min Rain = 0
KDO1 191052Z 34022G27KT M02/M06 A3014 RMK A01 T10151061  RH  071%=      5-min Rain = 0
KDO1 191053Z 34017G23KT M02/M06 A3014 RMK A01 T10151061  RH  071%=      5-min Rain = 0
KDO1 191054Z 34015KT M02/M06 A3014 RMK A01 T10161061  RH  071%=      5-min Rain = 0
KDO1 191055Z 34016G22KT M02/M06 A3014 RMK A01 T10161061  RH  071%=      5-min Rain = 0
KDO1 191056Z 33015KT M02/M06 A3014 RMK A01 T10171061  RH  072%=      5-min Rain = 0
KDO1 191057Z 34014KT M02/M06 A3014 RMK A01 T10171061  RH  072%=      5-min Rain = 0
KDO1 191058Z 35015KT M02/M06 A3014 RMK A01 T10171061  RH  072%=      5-min Rain = 0
KDO1 191059Z 35016G22KT M02/M06 A3014 RMK A01 T10171061  RH  072%=      5-min Rain = 0
KDO1 191100Z 35016KT M02/M06 A3014 RMK A01 T10171061  RH  072%=      5-min Rain = 0
KDO1 191101Z 35015KT M02/M06 A3014 RMK A01 T10171061  RH  072%=      5-min Rain = 0
KDO1 191102Z 34014KT M02/M06 A3014 RMK A01 T10181061  RH  072%=      5-min Rain = 0
KDO1 191103Z 34010KT M02/M06 A3014 RMK A01 T10181061  RH  072%=      5-min Rain = 0
KDO1 191104Z 34013KT M02/M06 A3014 RMK A01 T10181061  RH  073%=      5-min Rain = 0
KDO1 191105Z 34011KT M02/M06 A3014 RMK A01 T10191061  RH  073%=      5-min Rain = 0
KDO1 191106Z 33013G18KT M02/M06 A3014 RMK A01 T10191061  RH  073%=      5-min Rain = 0
KDO1 191107Z 34013KT M02/M06 A3014 RMK A01 T10191061  RH  073%=      5-min Rain = 0
KDO1 191108Z 34011G18KT M02/M06 A3014 RMK A01 T10191061  RH  073%=      5-min Rain = 0
KDO1 191109Z 33017G23KT M02/M06 A3014 RMK A01 T10191062  RH  073%=      5-min Rain = 0
KDO1 191110Z 34019G24KT M02/M06 A3014 RMK A01 T10191063  RH  072%=      5-min Rain = 0
KDO1 191111Z 34016KT M02/M06 A3014 RMK A01 T10191063  RH  072%=      5-min Rain = 0
KDO1 191112Z 34015G21KT M02/M06 A3015 RMK A01 T10191063  RH  072%=      5-min Rain = 0
KDO1 191113Z 34017G23KT M02/M06 A3015 RMK A01 T10201064  RH  072%=      5-min Rain = 0
KDO1 191114Z 34017KT M02/M06 A3015 RMK A01 T10201064  RH  072%=      5-min Rain = 0
KDO1 191115Z 34022G27KT M02/M07 A3015 RMK A01 T10201065  RH  071%=      5-min Rain = 0
KDO1 191116Z 34020KT M02/M07 A3015 RMK A01 T10201065  RH  071%=      5-min Rain = 0
KDO1 191117Z 34017G23KT M02/M07 A3015 RMK A01 T10201065  RH  071%=      5-min Rain = 0
KDO1 191118Z 34015KT M02/M07 A3015 RMK A01 T10201065  RH  071%=      5-min Rain = 0
KDO1 191119Z 34016G21KT M02/M07 A3015 RMK A01 T10201065  RH  071%=      5-min Rain = 0
KDO1 191120Z 34012G18KT M02/M07 A3015 RMK A01 T10211065  RH  071%=      5-min Rain = 0
KDO1 191121Z 34012G18KT M02/M07 A3015 RMK A01 T10211066  RH  071%=      5-min Rain = 0
KDO1 191122Z 34014G19KT M02/M07 A3015 RMK A01 T10211066  RH  072%=      5-min Rain = 0
KDO1 191123Z 34017G24KT M02/M07 A3015 RMK A01 T10211065  RH  072%=      5-min Rain = 0
KDO1 191124Z 33016G21KT M02/M07 A3015 RMK A01 T10221066  RH  071%=      5-min Rain = 0
KDO1 191125Z 34017G22KT M02/M07 A3015 RMK A01 T10211066  RH  071%=      5-min Rain = 0
KDO1 191126Z 34015KT M02/M07 A3015 RMK A01 T10211066  RH  071%=      5-min Rain = 0
KDO1 191127Z 34013G18KT M02/M07 A3015 RMK A01 T10211066  RH  071%=      5-min Rain = 0
KDO1 191128Z 33012KT M02/M07 A3015 RMK A01 T10211066  RH  071%=      5-min Rain = 0
KDO1 191129Z 34013KT M02/M07 A3015 RMK A01 T10211066  RH  072%=      5-min Rain = 0
KDO1 191130Z 33014KT M02/M07 A3015 RMK A01 T10221066  RH  072%=      5-min Rain = 0
KDO1 191131Z 34011KT M02/M07 A3015 RMK A01 T10221065  RH  072%=      5-min Rain = 0
KDO1 191132Z 33014KT M02/M07 A3015 RMK A01 T10221065  RH  072%=      5-min Rain = 0
KDO1 191133Z 33013G19KT M02/M07 A3015 RMK A01 T10221066  RH  072%=      5-min Rain = 0
KDO1 191134Z 33015G20KT M02/M07 A3015 RMK A01 T10221066  RH  072%=      5-min Rain = 0
KDO1 191135Z 32015G20KT M02/M07 A3015 RMK A01 T10221066  RH  072%=      5-min Rain = 0
KDO1 191136Z 33017G22KT M02/M07 A3015 RMK A01 T10221066  RH  071%=      5-min Rain = 0
KDO1 191137Z 33018KT M02/M07 A3015 RMK A01 T10211067  RH  071%=      5-min Rain = 0
KDO1 191138Z 33016KT M02/M07 A3015 RMK A01 T10211067  RH  071%=      5-min Rain = 0
KDO1 191139Z 34015G20KT M02/M07 A3015 RMK A01 T10211067  RH  070%=      5-min Rain = 0
KDO1 191140Z 33015G22KT M02/M07 A3015 RMK A01 T10211067  RH  070%=      5-min Rain = 0
KDO1 191141Z 33021KT M02/M07 A3015 RMK A01 T10211067  RH  070%=      5-min Rain = 0
KDO1 191142Z 33017G26KT M02/M07 A3015 RMK A01 T10211069  RH  070%=      5-min Rain = 0
KDO1 191143Z 33016G23KT M02/M07 A3016 RMK A01 T10201068  RH  070%=      5-min Rain = 0
KDO1 191144Z 33016G22KT M02/M07 A3016 RMK A01 T10201068  RH  070%=      5-min Rain = 0
KDO1 191145Z 33017G23KT M02/M07 A3016 RMK A01 T10201068  RH  070%=      5-min Rain = 0
KDO1 191146Z 33017KT M02/M07 A3016 RMK A01 T10201068  RH  070%=      5-min Rain = 0
KDO1 191147Z 33016G26KT M02/M07 A3016 RMK A01 T10201068  RH  070%=      5-min Rain = 0
KDO1 191148Z 33022KT M02/M07 A3016 RMK A01 T10201068  RH  070%=      5-min Rain = 0
KDO1 191149Z 33018G23KT M02/M07 A3016 RMK A01 T10201068  RH  070%=      5-min Rain = 0
KDO1 191150Z 33019G25KT M02/M07 A3016 RMK A01 T10201068  RH  070%=      5-min Rain = 0
KDO1 191151Z 32018G24KT M02/M07 A3016 RMK A01 T10201069  RH  069%=      5-min Rain = 0
KDO1 191152Z 33014G19KT M02/M07 A3016 RMK A01 T10201069  RH  069%=      5-min Rain = 0
KDO1 191153Z 33015G22KT M02/M07 A3016 RMK A01 T10201068  RH  070%=      5-min Rain = 0
KDO1 191154Z 33016KT M02/M07 A3016 RMK A01 T10201068  RH  070%=      5-min Rain = 0
KDO1 191155Z 33016KT M02/M07 A3016 RMK A01 T10201068  RH  070%=      5-min Rain = 0
KDO1 191156Z 33016G22KT M02/M07 A3017 RMK A01 T10201068  RH  070%=      5-min Rain = 0
KDO1 191157Z 34021G26KT M02/M07 A3017 RMK A01 T10211069  RH  070%=      5-min Rain = 0
KDO1 191158Z 34017G22KT M02/M07 A3017 RMK A01 T10201068  RH  070%=      5-min Rain = 0
KDO1 191159Z 34019KT M02/M07 A3017 RMK A01 T10201068  RH  070%=      5-min Rain = 0
KDO1 191200Z 34017G23KT M02/M07 A3017 RMK A01 T10201068  RH  070%=      5-min Rain = 0
KDO1 191201Z 34014G20KT M02/M07 A3017 RMK A01 T10201068  RH  070%=      5-min Rain = 0
KDO1 191202Z 34019G24KT M02/M07 A3017 RMK A01 T10201068  RH  070%=      5-min Rain = 0
KDO1 191203Z 33017G23KT M02/M07 A3017 RMK A01 T10201068  RH  070%=      5-min Rain = 0
KDO1 191204Z 34021G27KT M02/M07 A3017 RMK A01 T10201068  RH  070%=      5-min Rain = 0
KDO1 191205Z 34021G27KT M02/M07 A3017 RMK A01 T10201068  RH  070%=      5-min Rain = 0
KDO1 191206Z 33020G25KT M02/M07 A3017 RMK A01 T10201068  RH  070%=      5-min Rain = 0
KDO1 191207Z 35020G25KT M02/M07 A3017 RMK A01 T10201069  RH  070%=      5-min Rain = 0
KDO1 191208Z 34018G24KT M02/M07 A3017 RMK A01 T10201069  RH  069%=      5-min Rain = 0
KDO1 191209Z 33018KT M02/M07 A3017 RMK A01 T10201069  RH  069%=      5-min Rain = 0
KDO1 191210Z 34014KT M02/M07 A3017 RMK A01 T10201068  RH  070%=      5-min Rain = 0
KDO1 191211Z 34017KT M02/M07 A3017 RMK A01 T10201068  RH  070%=      5-min Rain = 0
KDO1 191212Z 33019G25KT M02/M07 A3017 RMK A01 T10201068  RH  070%=      5-min Rain = 0
KDO1 191213Z 34021KT M02/M07 A3017 RMK A01 T10201068  RH  070%=      5-min Rain = 0
KDO1 191214Z 34018KT M02/M07 A3017 RMK A01 T10201068  RH  070%=      5-min Rain = 0
KDO1 191215Z 34014KT M02/M07 A3018 RMK A01 T10201068  RH  070%=      5-min Rain = 0
KDO1 191216Z 33016KT M02/M07 A3018 RMK A01 T10201068  RH  070%=      5-min Rain = 0
KDO1 191217Z 33019G24KT M02/M07 A3018 RMK A01 T10201068  RH  070%=      5-min Rain = 0
KDO1 191218Z 33017G22KT M02/M07 A3018 RMK A01 T10211068  RH  070%=      5-min Rain = 0
KDO1 191219Z 33017G23KT M02/M07 A3018 RMK A01 T10201068  RH  070%=      5-min Rain = 0
KDO1 191220Z 34018G23KT M02/M07 A3018 RMK A01 T10201068  RH  070%=      5-min Rain = 0
KDO1 191221Z 33019G24KT M02/M07 A3018 RMK A01 T10201068  RH  070%=      5-min Rain = 0
KDO1 191222Z 34016G21KT M02/M07 A3018 RMK A01 T10211069  RH  070%=      5-min Rain = 0
KDO1 191223Z 34019G25KT M02/M07 A3018 RMK A01 T10211068  RH  070%=      5-min Rain = 0
KDO1 191224Z 33018KT M02/M07 A3018 RMK A01 T10211068  RH  070%=      5-min Rain = 0
KDO1 191225Z 33015G22KT M02/M07 A3018 RMK A01 T10201068  RH  070%=      5-min Rain = 0
KDO1 191226Z 33015G20KT M02/M07 A3018 RMK A01 T10211068  RH  070%=      5-min Rain = 0
KDO1 191227Z 34014KT M02/M07 A3018 RMK A01 T10211068  RH  070%=      5-min Rain = 0
KDO1 191228Z 34016G22KT M02/M07 A3019 RMK A01 T10211068  RH  071%=      5-min Rain = 0
KDO1 191229Z 34017G24KT M02/M07 A3019 RMK A01 T10211068  RH  071%=      5-min Rain = 0
KDO1 191230Z 33017KT M02/M07 A3019 RMK A01 T10221068  RH  071%=      5-min Rain = 0
KDO1 191231Z 34017KT M02/M07 A3019 RMK A01 T10221068  RH  071%=      5-min Rain = 0
KDO1 191232Z 34015KT M02/M07 A3019 RMK A01 T10221068  RH  071%=      5-min Rain = 0
KDO1 191233Z 34013KT M02/M07 A3019 RMK A01 T10221067  RH  071%=      5-min Rain = 0
KDO1 191234Z 34013G18KT M02/M07 A3019 RMK A01 T10221067  RH  071%=      5-min Rain = 0
KDO1 191235Z 33013KT M02/M07 A3019 RMK A01 T10221067  RH  071%=      5-min Rain = 0
KDO1 191236Z 34016KT M02/M07 A3019 RMK A01 T10231067  RH  071%=      5-min Rain = 0
KDO1 191237Z 34016KT M02/M07 A3019 RMK A01 T10221067  RH  071%=      5-min Rain = 0
KDO1 191238Z 34020KT M02/M07 A3019 RMK A01 T10221067  RH  071%=      5-min Rain = 0
KDO1 191239Z 34019KT M02/M07 A3019 RMK A01 T10221067  RH  071%=      5-min Rain = 0
KDO1 191240Z 34012KT M02/M07 A3019 RMK A01 T10211066  RH  071%=      5-min Rain = 0
KDO1 191241Z 34016G22KT M02/M07 A3019 RMK A01 T10221066  RH  071%=      5-min Rain = 0
KDO1 191242Z 34018KT M02/M07 A3019 RMK A01 T10221066  RH  071%=      5-min Rain = 0
KDO1 191243Z 33016KT M02/M07 A302 RMK A01 T10211066  RH  072%=      5-min Rain = 0
KDO1 191244Z 33015KT M02/M07 A302 RMK A01 T10221066  RH  072%=      5-min Rain = 0
KDO1 191245Z 34013G18KT M02/M07 A302 RMK A01 T10221066  RH  072%=      5-min Rain = 0
KDO1 191246Z 34015KT M02/M07 A302 RMK A01 T10221066  RH  072%=      5-min Rain = 0
KDO1 191247Z 33018G23KT M02/M07 A302 RMK A01 T10221066  RH  072%=      5-min Rain = 0
KDO1 191248Z 34017KT M02/M07 A302 RMK A01 T10221066  RH  072%=      5-min Rain = 0
KDO1 191249Z 35018KT M02/M07 A302 RMK A01 T10221067  RH  071%=      5-min Rain = 0
KDO1 191250Z 34016KT M02/M07 A302 RMK A01 T10221066  RH  071%=      5-min Rain = 0
KDO1 191251Z 34016KT M02/M07 A302 RMK A01 T10221066  RH  071%=      5-min Rain = 0
KDO1 191252Z 34016KT M02/M07 A302 RMK A01 T10221066  RH  072%=      5-min Rain = 0
KDO1 191253Z 33016G23KT M02/M07 A302 RMK A01 T10221067  RH  072%=      5-min Rain = 0
KDO1 191254Z 33014KT M02/M07 A302 RMK A01 T10221066  RH  072%=      5-min Rain = 0
KDO1 191255Z 34012KT M02/M07 A302 RMK A01 T10221067  RH  072%=      5-min Rain = 0
KDO1 191256Z 34014KT M02/M07 A3021 RMK A01 T10221066  RH  072%=      5-min Rain = 0
KDO1 191257Z 34012G18KT M02/M07 A3021 RMK A01 T10221066  RH  072%=      5-min Rain = 0
KDO1 191258Z 34014G21KT M02/M07 A3021 RMK A01 T10221066  RH  072%=      5-min Rain = 0
KDO1 191259Z 33018G23KT M02/M07 A3021 RMK A01 T10221066  RH  072%=      5-min Rain = 0
KDO1 191300Z 34015KT M02/M07 A3021 RMK A01 T10221066  RH  072%=      5-min Rain = 0
KDO1 191301Z 34014G19KT M02/M07 A3021 RMK A01 T10221066  RH  072%=      5-min Rain = 0
KDO1 191302Z 34012G19KT M02/M07 A3021 RMK A01 T10221066  RH  072%=      5-min Rain = 0
KDO1 191303Z 33013KT M02/M07 A3021 RMK A01 T10221066  RH  072%=      5-min Rain = 0
KDO1 191304Z 34014G19KT M02/M07 A3021 RMK A01 T10231066  RH  072%=      5-min Rain = 0
KDO1 191305Z 33016KT M02/M07 A3021 RMK A01 T10231066  RH  072%=      5-min Rain = 0
KDO1 191306Z 33017KT M02/M07 A3021 RMK A01 T10231066  RH  072%=      5-min Rain = 0
KDO1 191307Z 34014KT M02/M07 A3021 RMK A01 T10221065  RH  072%=      5-min Rain = 0
KDO1 191308Z 34011G17KT M02/M07 A3021 RMK A01 T10231066  RH  072%=      5-min Rain = 0
KDO1 191309Z 33012KT M02/M07 A3022 RMK A01 T10231065  RH  073%=      5-min Rain = 0
KDO1 191310Z 33013KT M02/M07 A3021 RMK A01 T10231065  RH  073%=      5-min Rain = 0
KDO1 191311Z 34013KT M02/M07 A3022 RMK A01 T10231065  RH  073%=      5-min Rain = 0
KDO1 191312Z 34012G17KT M02/M07 A3022 RMK A01 T10231065  RH  073%=      5-min Rain = 0
KDO1 191313Z 34014KT M02/M07 A3021 RMK A01 T10231065  RH  073%=      5-min Rain = 0
KDO1 191314Z 34012G17KT M02/M06 A3021 RMK A01 T10231064  RH  073%=      5-min Rain = 0
KDO1 191315Z 33013KT M02/M07 A3021 RMK A01 T10241065  RH  073%=      5-min Rain = 0
KDO1 191316Z 34011KT M02/M07 A3022 RMK A01 T10241065  RH  073%=      5-min Rain = 0
KDO1 191317Z 34016G21KT M02/M07 A3022 RMK A01 T10241065  RH  073%=      5-min Rain = 0
KDO1 191318Z 34016KT M02/M06 A3022 RMK A01 T10231064  RH  073%=      5-min Rain = 0
KDO1 191319Z 33015KT M02/M06 A3022 RMK A01 T10231064  RH  073%=      5-min Rain = 0
KDO1 191320Z 33014G20KT M02/M07 A3022 RMK A01 T10231065  RH  073%=      5-min Rain = 0
KDO1 191321Z 34015G22KT M02/M07 A3022 RMK A01 T10231065  RH  073%=      5-min Rain = 0
KDO1 191322Z 34015KT M02/M07 A3022 RMK A01 T10231065  RH  073%=      5-min Rain = 0
KDO1 191323Z 34012KT M02/M06 A3022 RMK A01 T10231064  RH  073%=      5-min Rain = 0
KDO1 191324Z 34011G17KT M02/M07 A3022 RMK A01 T10231065  RH  073%=      5-min Rain = 0
KDO1 191325Z 34016G23KT M02/M07 A3022 RMK A01 T10241065  RH  073%=      5-min Rain = 0
KDO1 191326Z 34016G22KT M02/M07 A3022 RMK A01 T10241065  RH  073%=      5-min Rain = 0
KDO1 191327Z 34016G21KT M02/M07 A3022 RMK A01 T10231065  RH  073%=      5-min Rain = 0
KDO1 191328Z 34018G24KT M02/M07 A3022 RMK A01 T10231066  RH  073%=      5-min Rain = 0
KDO1 191329Z 34016KT M02/M07 A3022 RMK A01 T10231066  RH  072%=      5-min Rain = 0
KDO1 191330Z 34013G18KT M02/M07 A3022 RMK A01 T10231066  RH  072%=      5-min Rain = 0
KDO1 191331Z 34018G24KT M02/M07 A3022 RMK A01 T10231067  RH  072%=      5-min Rain = 0
KDO1 191332Z 34017KT M02/M07 A3022 RMK A01 T10241067  RH  072%=      5-min Rain = 0
KDO1 191333Z 34016G24KT M02/M07 A3022 RMK A01 T10241067  RH  072%=      5-min Rain = 0
KDO1 191334Z 34016G23KT M02/M07 A3022 RMK A01 T10231067  RH  072%=      5-min Rain = 0
KDO1 191335Z 33017G22KT M02/M07 A3022 RMK A01 T10231067  RH  072%=      5-min Rain = 0
KDO1 191336Z 34019KT M02/M07 A3022 RMK A01 T10231067  RH  072%=      5-min Rain = 0
KDO1 191337Z 33018G24KT M02/M07 A3022 RMK A01 T10231068  RH  072%=      5-min Rain = 0
KDO1 191338Z 34013G18KT M02/M07 A3022 RMK A01 T10231068  RH  071%=      5-min Rain = 0
KDO1 191339Z 34017G23KT M02/M07 A3023 RMK A01 T10231067  RH  072%=      5-min Rain = 0
KDO1 191340Z 34014G20KT M02/M07 A3023 RMK A01 T10231068  RH  072%=      5-min Rain = 0
KDO1 191341Z 34015G20KT M02/M07 A3023 RMK A01 T10241068  RH  072%=      5-min Rain = 0
KDO1 191342Z 34012KT M02/M07 A3023 RMK A01 T10241068  RH  072%=      5-min Rain = 0
KDO1 191343Z 34014G19KT M02/M07 A3023 RMK A01 T10241068  RH  072%=      5-min Rain = 0
KDO1 191344Z 34016KT M02/M07 A3023 RMK A01 T10241068  RH  072%=      5-min Rain = 0
KDO1 191345Z 34013KT M02/M07 A3023 RMK A01 T10241068  RH  072%=      5-min Rain = 0
KDO1 191346Z 34014KT M02/M07 A3023 RMK A01 T10241068  RH  072%=      5-min Rain = 0
KDO1 191347Z 34010G16KT M02/M07 A3023 RMK A01 T10241068  RH  072%=      5-min Rain = 0
KDO1 191348Z 34012G17KT M03/M07 A3023 RMK A01 T10251068  RH  072%=      5-min Rain = 0
KDO1 191349Z 34012KT M03/M07 A3023 RMK A01 T10251068  RH  072%=      5-min Rain = 0
KDO1 191350Z 33015KT M03/M07 A3023 RMK A01 T10251068  RH  072%=      5-min Rain = 0
KDO1 191351Z 34017KT M03/M07 A3023 RMK A01 T10251068  RH  072%=      5-min Rain = 0
KDO1 191352Z 34014G19KT M03/M07 A3023 RMK A01 T10251068  RH  072%=      5-min Rain = 0
KDO1 191353Z 34015G20KT M03/M07 A3023 RMK A01 T10251069  RH  072%=      5-min Rain = 0
KDO1 191354Z 34016G22KT M03/M07 A3023 RMK A01 T10251069  RH  072%=      5-min Rain = 0
KDO1 191355Z 34016G23KT M03/M07 A3023 RMK A01 T10251069  RH  071%=      5-min Rain = 0
KDO1 191356Z 34014G19KT M03/M07 A3023 RMK A01 T10251069  RH  072%=      5-min Rain = 0
KDO1 191357Z 34011KT M03/M07 A3024 RMK A01 T10251069  RH  072%=      5-min Rain = 0
KDO1 191358Z 34014KT M03/M07 A3024 RMK A01 T10251069  RH  072%=      5-min Rain = 0
KDO1 191359Z 34013KT M03/M07 A3024 RMK A01 T10251069  RH  072%=      5-min Rain = 0
KDO1 191400Z 34016KT M03/M07 A3024 RMK A01 T10251069  RH  072%=      5-min Rain = 0
KDO1 191401Z 34013KT M03/M07 A3024 RMK A01 T10251069  RH  072%=      5-min Rain = 0
KDO1 191402Z 34013G18KT M03/M07 A3024 RMK A01 T10251069  RH  072%=      5-min Rain = 0
KDO1 191403Z 34016KT M03/M07 A3024 RMK A01 T10251069  RH  072%=      5-min Rain = 0
KDO1 191404Z 33012KT M03/M07 A3024 RMK A01 T10251069  RH  072%=      5-min Rain = 0
KDO1 191405Z 34012G18KT M03/M07 A3024 RMK A01 T10251069  RH  072%=      5-min Rain = 0
KDO1 191406Z 34014KT M03/M07 A3024 RMK A01 T10251069  RH  072%=      5-min Rain = 0
KDO1 191407Z 34017KT M03/M07 A3024 RMK A01 T10251069  RH  071%=      5-min Rain = 0
KDO1 191408Z 34016KT M02/M07 A3024 RMK A01 T10241069  RH  071%=      5-min Rain = 0
KDO1 191409Z 33015G22KT M02/M07 A3024 RMK A01 T10241069  RH  071%=      5-min Rain = 0
KDO1 191410Z 34018KT M02/M07 A3024 RMK A01 T10241069  RH  071%=      5-min Rain = 0
KDO1 191411Z 34013G18KT M02/M07 A3024 RMK A01 T10241069  RH  071%=      5-min Rain = 0
KDO1 191412Z 34012G17KT M02/M07 A3025 RMK A01 T10241069  RH  071%=      5-min Rain = 0
KDO1 191413Z 35015G20KT M02/M07 A3025 RMK A01 T10241069  RH  071%=      5-min Rain = 0
KDO1 191414Z 34015G20KT M02/M07 A3025 RMK A01 T10241069  RH  071%=      5-min Rain = 0
KDO1 191415Z 34012KT M02/M07 A3025 RMK A01 T10241069  RH  071%=      5-min Rain = 0
KDO1 191416Z 34015KT M02/M07 A3025 RMK A01 T10241069  RH  071%=      5-min Rain = 0
KDO1 191417Z 34015G24KT M02/M07 A3025 RMK A01 T10231069  RH  071%=      5-min Rain = 0
KDO1 191418Z 35013G19KT M02/M07 A3025 RMK A01 T10231069  RH  071%=      5-min Rain = 0
KDO1 191419Z 34012G20KT M02/M07 A3025 RMK A01 T10221069  RH  070%=      5-min Rain = 0
KDO1 191420Z 34016G21KT M02/M07 A3024 RMK A01 T10221069  RH  070%=      5-min Rain = 0
KDO1 191421Z 34016G21KT M02/M07 A3025 RMK A01 T10221069  RH  070%=      5-min Rain = 0
KDO1 191422Z 34019G25KT M02/M07 A3025 RMK A01 T10221069  RH  070%=      5-min Rain = 0
KDO1 191423Z 34017G23KT M02/M07 A3025 RMK A01 T10211070  RH  069%=      5-min Rain = 0
KDO1 191424Z 33015G22KT M02/M07 A3025 RMK A01 T10211069  RH  069%=      5-min Rain = 0
KDO1 191425Z 34021G27KT M02/M07 A3025 RMK A01 T10201069  RH  069%=      5-min Rain = 0
KDO1 191426Z 34020G25KT M02/M07 A3025 RMK A01 T10201070  RH  069%=      5-min Rain = 0
KDO1 191427Z 33019G24KT M02/M07 A3025 RMK A01 T10201070  RH  069%=      5-min Rain = 0
KDO1 191428Z 34015G20KT M02/M07 A3025 RMK A01 T10201070  RH  069%=      5-min Rain = 0
KDO1 191429Z 33016G22KT M02/M07 A3025 RMK A01 T10191069  RH  069%=      5-min Rain = 0
KDO1 191430Z 34014G19KT M02/M07 A3025 RMK A01 T10191069  RH  069%=      5-min Rain = 0
KDO1 191431Z 34019G24KT M02/M07 A3025 RMK A01 T10191069  RH  069%=      5-min Rain = 0
KDO1 191432Z 33014G22KT M02/M07 A3025 RMK A01 T10191069  RH  069%=      5-min Rain = 0
KDO1 191433Z 34015KT M02/M07 A3025 RMK A01 T10191069  RH  069%=      5-min Rain = 0
KDO1 191434Z 34016G22KT M02/M07 A3025 RMK A01 T10181069  RH  068%=      5-min Rain = 0
KDO1 191435Z 33013G19KT M02/M07 A3025 RMK A01 T10181069  RH  068%=      5-min Rain = 0
KDO1 191436Z 33018G24KT M02/M07 A3025 RMK A01 T10181069  RH  068%=      5-min Rain = 0
KDO1 191437Z 34020G26KT M02/M07 A3025 RMK A01 T10181070  RH  068%=      5-min Rain = 0
KDO1 191438Z 34017G22KT M02/M07 A3026 RMK A01 T10171070  RH  067%=      5-min Rain = 0
KDO1 191439Z 33016KT M02/M07 A3026 RMK A01 T10171070  RH  067%=      5-min Rain = 0
KDO1 191440Z 34016G21KT M02/M07 A3026 RMK A01 T10171069  RH  067%=      5-min Rain = 0
KDO1 191441Z 33020KT M02/M07 A3026 RMK A01 T10171070  RH  067%=      5-min Rain = 0
KDO1 191442Z 33016G23KT M02/M07 A3026 RMK A01 T10171070  RH  067%=      5-min Rain = 0
KDO1 191443Z 34017KT M02/M07 A3026 RMK A01 T10171070  RH  067%=      5-min Rain = 0
KDO1 191444Z 34017G24KT M02/M07 A3026 RMK A01 T10161070  RH  067%=      5-min Rain = 0
KDO1 191445Z 34022G27KT M02/M07 A3026 RMK A01 T10161070  RH  066%=      5-min Rain = 0
KDO1 191446Z 34021KT M02/M07 A3026 RMK A01 T10161071  RH  066%=      5-min Rain = 0
KDO1 191447Z 33019G25KT M02/M07 A3026 RMK A01 T10161070  RH  066%=      5-min Rain = 0
KDO1 191448Z 34019G24KT M02/M07 A3026 RMK A01 T10161070  RH  066%=      5-min Rain = 0
KDO1 191449Z 34019KT M02/M07 A3026 RMK A01 T10161071  RH  066%=      5-min Rain = 0
KDO1 191450Z 35016G21KT M02/M07 A3026 RMK A01 T10151070  RH  066%=      5-min Rain = 0
KDO1 191451Z 34017G22KT M02/M07 A3026 RMK A01 T10151070  RH  066%=      5-min Rain = 0
KDO1 191452Z 34019KT M02/M07 A3027 RMK A01 T10151071  RH  066%=      5-min Rain = 0
KDO1 191453Z 34016KT M02/M07 A3027 RMK A01 T10151071  RH  066%=      5-min Rain = 0
KDO1 191454Z 34019G24KT M01/M07 A3027 RMK A01 T10141070  RH  066%=      5-min Rain = 0
KDO1 191455Z 34016KT M01/M07 A3027 RMK A01 T10141070  RH  066%=      5-min Rain = 0
KDO1 191456Z 34017KT M01/M07 A3027 RMK A01 T10141070  RH  066%=      5-min Rain = 0
KDO1 191457Z 33016G21KT M01/M07 A3027 RMK A01 T10141070  RH  066%=      5-min Rain = 0
KDO1 191458Z 34016G21KT M01/M07 A3027 RMK A01 T10141070  RH  066%=      5-min Rain = 0
KDO1 191459Z 33018G24KT M01/M07 A3027 RMK A01 T10141070  RH  065%=      5-min Rain = 0
KDO1 191500Z 34019KT M01/M07 A3027 RMK A01 T10131070  RH  065%=      5-min Rain = 0
KDO1 191501Z 34014KT M01/M07 A3027 RMK A01 T10131070  RH  065%=      5-min Rain = 0
KDO1 191502Z 35015G25KT M01/M07 A3027 RMK A01 T10121069  RH  066%=      5-min Rain = 0
KDO1 191503Z 34013KT M01/M07 A3027 RMK A01 T10121069  RH  065%=      5-min Rain = 0
KDO1 191504Z 33013KT M01/M07 A3027 RMK A01 T10111068  RH  065%=      5-min Rain = 0
KDO1 191505Z 34012KT M01/M07 A3027 RMK A01 T10101067  RH  065%=      5-min Rain = 0
KDO1 191506Z 34015G21KT M01/M07 A3028 RMK A01 T10101067  RH  065%=      5-min Rain = 0
KDO1 191507Z 33015G22KT M01/M07 A3028 RMK A01 T10101068  RH  065%=      5-min Rain = 0
KDO1 191508Z 34016G21KT M01/M07 A3027 RMK A01 T10101068  RH  065%=      5-min Rain = 0
KDO1 191509Z 34014KT M01/M07 A3028 RMK A01 T10101068  RH  065%=      5-min Rain = 0
KDO1 191510Z 35015G21KT M01/M07 A3028 RMK A01 T10091067  RH  065%=      5-min Rain = 0
KDO1 191511Z 34012G21KT M01/M07 A3028 RMK A01 T10091066  RH  065%=      5-min Rain = 0
KDO1 191512Z 34016G22KT M01/M07 A3028 RMK A01 T10081066  RH  065%=      5-min Rain = 0
KDO1 191513Z 34016KT M01/M07 A3028 RMK A01 T10081067  RH  064%=      5-min Rain = 0
KDO1 191514Z 33014G19KT M01/M07 A3028 RMK A01 T10081067  RH  064%=      5-min Rain = 0
KDO1 191515Z 34016KT M01/M07 A3028 RMK A01 T10081067  RH  064%=      5-min Rain = 0
KDO1 191516Z 34017G25KT M01/M07 A3028 RMK A01 T10081067  RH  064%=      5-min Rain = 0
KDO1 191517Z 34018G23KT M01/M07 A3028 RMK A01 T10081067  RH  064%=      5-min Rain = 0
KDO1 191518Z 35016G21KT M01/M07 A3028 RMK A01 T10081068  RH  064%=      5-min Rain = 0
KDO1 191519Z 33017G24KT M01/M07 A3028 RMK A01 T10071067  RH  064%=      5-min Rain = 0
KDO1 191520Z 33020G29KT M01/M07 A3028 RMK A01 T10071067  RH  064%=      5-min Rain = 0
KDO1 191521Z 34022G27KT M01/M07 A3028 RMK A01 T10071068  RH  063%=      5-min Rain = 0
KDO1 191522Z 34018G24KT M01/M07 A3028 RMK A01 T10071068  RH  063%=      5-min Rain = 0
KDO1 191523Z 35015G20KT M01/M07 A3029 RMK A01 T10061068  RH  063%=      5-min Rain = 0
KDO1 191524Z 34016G27KT M01/M07 A3029 RMK A01 T10051066  RH  063%=      5-min Rain = 0
KDO1 191525Z 34022G28KT M00/M07 A3029 RMK A01 T10041067  RH  063%=      5-min Rain = 0
KDO1 191526Z 34021KT M01/M07 A3029 RMK A01 T10051069  RH  062%=      5-min Rain = 0
KDO1 191527Z 34019G24KT M01/M07 A3029 RMK A01 T10061069  RH  062%=      5-min Rain = 0
KDO1 191528Z 34012G17KT M01/M07 A3029 RMK A01 T10061067  RH  063%=      5-min Rain = 0
KDO1 191529Z 34017G23KT M00/M07 A3029 RMK A01 T10031066  RH  063%=      5-min Rain = 0
KDO1 191530Z 34019KT M00/M07 A3029 RMK A01 T10031068  RH  061%=      5-min Rain = 0
KDO1 191531Z 35016G21KT M00/M07 A303 RMK A01 T10031068  RH  062%=      5-min Rain = 0
KDO1 191532Z 34013G18KT M00/M07 A303 RMK A01 T10031068  RH  062%=      5-min Rain = 0
KDO1 191533Z 35016G21KT M00/M07 A303 RMK A01 T10021067  RH  062%=      5-min Rain = 0
KDO1 191534Z 35019KT M00/M07 A303 RMK A01 T10011068  RH  061%=      5-min Rain = 0
KDO1 191535Z 34018G24KT M00/M07 A303 RMK A01 T10021068  RH  061%=      5-min Rain = 0
KDO1 191536Z 35019KT M00/M07 A303 RMK A01 T10021068  RH  061%=      5-min Rain = 0
KDO1 191537Z 34017KT M00/M07 A303 RMK A01 T10021068  RH  061%=      5-min Rain = 0
KDO1 191538Z 34016G22KT M00/M07 A303 RMK A01 T10021068  RH  061%=      5-min Rain = 0
KDO1 191539Z 35020G28KT M00/M07 A303 RMK A01 T10011068  RH  061%=      5-min Rain = 0
KDO1 191540Z 34015KT M00/M07 A303 RMK A01 T10011068  RH  061%=      5-min Rain = 0
KDO1 191541Z 35015G20KT M00/M07 A303 RMK A01 T10011067  RH  061%=      5-min Rain = 0
KDO1 191542Z 34022G29KT 00/07 A303 RMK A01 T00000-67  RH  061%=      5-min Rain = 0
KDO1 191543Z 35022G27KT 00/07 A3031 RMK A01 T00000-68  RH  060%=      5-min Rain = 0
KDO1 191544Z 36020G26KT M00/M07 A3031 RMK A01 T10011069  RH  060%=      5-min Rain = 0
KDO1 191545Z 34018KT M00/M07 A3031 RMK A01 T10011069  RH  060%=      5-min Rain = 0
KDO1 191546Z 35019G24KT M00/M07 A303 RMK A01 T10011069  RH  060%=      5-min Rain = 0
KDO1 191547Z 35015KT M00/M07 A3031 RMK A01 T10011069  RH  060%=      5-min Rain = 0
KDO1 191548Z 35015G20KT 00/M07 A3031 RMK A01 T00011067  RH  060%=      5-min Rain = 0
KDO1 191549Z 35016G22KT 00/M07 A3031 RMK A01 T00021067  RH  060%=      5-min Rain = 0
KDO1 191550Z 35016G22KT 00/M07 A3031 RMK A01 T00021068  RH  059%=      5-min Rain = 0
KDO1 191551Z 35015G22KT 00/M07 A3031 RMK A01 T00031068  RH  059%=      5-min Rain = 0
KDO1 191552Z 35016KT 00/M07 A3031 RMK A01 T00031068  RH  059%=      5-min Rain = 0
KDO1 191553Z 35016KT 00/M07 A3031 RMK A01 T00031069  RH  059%=      5-min Rain = 0
KDO1 191554Z 35014G20KT 00/M07 A3031 RMK A01 T00041068  RH  059%=      5-min Rain = 0
KDO1 191555Z 35019KT 01/M07 A3031 RMK A01 T00061067  RH  058%=      5-min Rain = 0
KDO1 191556Z 35019G27KT 01/M07 A3031 RMK A01 T00061069  RH  057%=      5-min Rain = 0
KDO1 191557Z 35020KT 01/M07 A3031 RMK A01 T00051069  RH  057%=      5-min Rain = 0
KDO1 191558Z 34022G27KT 01/M07 A3031 RMK A01 T00051070  RH  057%=      5-min Rain = 0
KDO1 191559Z 34022G27KT 00/M07 A3031 RMK A01 T00041071  RH  057%=      5-min Rain = 0
KDO1 191600Z 34016KT 00/M07 A3031 RMK A01 T00031071  RH  057%=      5-min Rain = 0
KDO1 191601Z 36018KT 00/M07 A3031 RMK A01 T00041069  RH  058%=      5-min Rain = 0
KDO1 191602Z 35021KT 00/M07 A3031 RMK A01 T00041069  RH  058%=      5-min Rain = 0
KDO1 191603Z 36018KT 01/M07 A3031 RMK A01 T00051069  RH  058%=      5-min Rain = 0
KDO1 191604Z 35018G23KT 01/M07 A3031 RMK A01 T00061069  RH  057%=      5-min Rain = 0
KDO1 191605Z 35019G24KT 01/M07 A3031 RMK A01 T00071068  RH  057%=      5-min Rain = 0
KDO1 191606Z 36020G25KT 01/M07 A3031 RMK A01 T00071069  RH  057%=      5-min Rain = 0
KDO1 191607Z 35015G21KT 01/M07 A3032 RMK A01 T00071068  RH  057%=      5-min Rain = 0
KDO1 191608Z 35019G25KT 01/M07 A3032 RMK A01 T00091066  RH  057%=      5-min Rain = 0
KDO1 191609Z 34020G25KT 01/M07 A3032 RMK A01 T00101067  RH  056%=      5-min Rain = 0
KDO1 191610Z 35019G24KT 01/M07 A3032 RMK A01 T00111066  RH  056%=      5-min Rain = 0
KDO1 191611Z 35014G20KT 01/M07 A3032 RMK A01 T00111067  RH  056%=      5-min Rain = 0
KDO1 191612Z 36012G18KT 01/M07 A3032 RMK A01 T00111065  RH  057%=      5-min Rain = 0
KDO1 191613Z 36015KT 01/M06 A3032 RMK A01 T00141063  RH  057%=      5-min Rain = 0
KDO1 191614Z 35019G24KT 01/M07 A3032 RMK A01 T00131066  RH  056%=      5-min Rain = 0
KDO1 191615Z 34017KT 01/M07 A3032 RMK A01 T00101068  RH  056%=      5-min Rain = 0
KDO1 191616Z 35017KT 01/M07 A3032 RMK A01 T00091067  RH  057%=      5-min Rain = 0
KDO1 191617Z 00018G24KT 01/M07 A3032 RMK A01 T00091067  RH  057%=      5-min Rain = 0
KDO1 191618Z 00015KT 01/M07 A3032 RMK A01 T00091066  RH  057%=      5-min Rain = 0
KDO1 191619Z 36013KT 01/M07 A3032 RMK A01 T00091066  RH  057%=      5-min Rain = 0
KDO1 191620Z 35018G25KT 01/M07 A3032 RMK A01 T00101065  RH  057%=      5-min Rain = 0
KDO1 191621Z 35015KT 01/M07 A3032 RMK A01 T00111066  RH  057%=      5-min Rain = 0
KDO1 191622Z 34018G25KT 01/M07 A3032 RMK A01 T00101066  RH  057%=      5-min Rain = 0
KDO1 191623Z 35017G22KT 01/M07 A3032 RMK A01 T00111066  RH  057%=      5-min Rain = 0
KDO1 191624Z 36014G21KT 01/M07 A3032 RMK A01 T00121065  RH  056%=      5-min Rain = 0
KDO1 191625Z 00014G20KT 01/M06 A3032 RMK A01 T00131064  RH  056%=      5-min Rain = 0
KDO1 191626Z 35014KT 01/M07 A3032 RMK A01 T00141065  RH  056%=      5-min Rain = 0
KDO1 191627Z 01017G22KT 02/M06 A3032 RMK A01 T00161064  RH  056%=      5-min Rain = 0
KDO1 191628Z 00016KT 02/M07 A3032 RMK A01 T00161066  RH  054%=      5-min Rain = 0
KDO1 191629Z 00021G26KT 01/M07 A3032 RMK A01 T00131070  RH  054%=      5-min Rain = 0
KDO1 191630Z 00020KT 01/M07 A3032 RMK A01 T00101070  RH  055%=      5-min Rain = 0
KDO1 191631Z 36018KT 01/M07 A3032 RMK A01 T00091070  RH  055%=      5-min Rain = 0
KDO1 191632Z 36018KT 01/M07 A3033 RMK A01 T00091069  RH  056%=      5-min Rain = 0
KDO1 191633Z 00016G23KT 01/M07 A3033 RMK A01 T00111068  RH  056%=      5-min Rain = 0
KDO1 191634Z 01016G22KT 01/M07 A3033 RMK A01 T00131067  RH  055%=      5-min Rain = 0
KDO1 191635Z 00020KT 01/M07 A3033 RMK A01 T00131069  RH  054%=      5-min Rain = 0
KDO1 191636Z 00020KT 01/M07 A3033 RMK A01 T00121070  RH  054%=      5-min Rain = 0
KDO1 191637Z 36021G26KT 01/M07 A3033 RMK A01 T00121070  RH  054%=      5-min Rain = 0
KDO1 191638Z 00014G20KT 01/M07 A3033 RMK A01 T00121070  RH  054%=      5-min Rain = 0
KDO1 191639Z 01019KT 01/M07 A3033 RMK A01 T00141069  RH  054%=      5-min Rain = 0
KDO1 191640Z 01025G30KT 01/M07 A3033 RMK A01 T00131071  RH  054%=      5-min Rain = 0
KDO1 191641Z 01020G28KT 01/M07 A3032 RMK A01 T00111072  RH  054%=      5-min Rain = 0
KDO1 191642Z 36017G22KT 01/M07 A3032 RMK A01 T00121070  RH  054%=      5-min Rain = 0
KDO1 191643Z 00018G23KT 01/M07 A3032 RMK A01 T00131070  RH  054%=      5-min Rain = 0
KDO1 191644Z 00016KT 01/M07 A3033 RMK A01 T00121072  RH  054%=      5-min Rain = 0
KDO1 191645Z 35015G21KT 01/M07 A3033 RMK A01 T00121070  RH  054%=      5-min Rain = 0
KDO1 191646Z 36018G23KT 01/M07 A3033 RMK A01 T00131070  RH  054%=      5-min Rain = 0
KDO1 191647Z 35019KT 01/M07 A3033 RMK A01 T00141069  RH  054%=      5-min Rain = 0
KDO1 191648Z 00018G24KT 01/M07 A3033 RMK A01 T00141068  RH  054%=      5-min Rain = 0
KDO1 191649Z 00015G22KT 02/M07 A3033 RMK A01 T00151068  RH  054%=      5-min Rain = 0
KDO1 191650Z 01020G26KT 02/M07 A3033 RMK A01 T00151068  RH  054%=      5-min Rain = 0
KDO1 191651Z 00014G22KT 01/M07 A3033 RMK A01 T00141070  RH  054%=      5-min Rain = 0
KDO1 191652Z 36017G25KT 01/M07 A3033 RMK A01 T00141067  RH  055%=      5-min Rain = 0
KDO1 191653Z 35020KT 02/M07 A3033 RMK A01 T00161066  RH  054%=      5-min Rain = 0
KDO1 191654Z 34016KT 02/M07 A3033 RMK A01 T00161067  RH  054%=      5-min Rain = 0
KDO1 191655Z 34017KT 02/M07 A3033 RMK A01 T00151067  RH  055%=      5-min Rain = 0
KDO1 191656Z 35017KT 01/M07 A3033 RMK A01 T00141066  RH  055%=      5-min Rain = 0
KDO1 191657Z 36018G25KT 02/M07 A3033 RMK A01 T00161066  RH  055%=      5-min Rain = 0
KDO1 191658Z 00019G24KT 02/M07 A3033 RMK A01 T00171066  RH  054%=      5-min Rain = 0
KDO1 191659Z 35018G23KT 02/M07 A3033 RMK A01 T00161067  RH  054%=      5-min Rain = 0
KDO1 191700Z 34017G22KT 02/M07 A3033 RMK A01 T00171065  RH  054%=      5-min Rain = 0
KDO1 191701Z 34015G20KT 02/M07 A3034 RMK A01 T00171066  RH  054%=      5-min Rain = 0
KDO1 191702Z 35013G20KT 02/M07 A3034 RMK A01 T00171065  RH  055%=      5-min Rain = 0
KDO1 191703Z 35017G22KT 02/M07 A3034 RMK A01 T00171066  RH  054%=      5-min Rain = 0
KDO1 191704Z 36015G20KT 02/M07 A3034 RMK A01 T00161067  RH  054%=      5-min Rain = 0
KDO1 191705Z 34022G27KT 02/M07 A3034 RMK A01 T00161065  RH  055%=      5-min Rain = 0
KDO1 191706Z 34021G26KT 02/M07 A3034 RMK A01 T00151067  RH  054%=      5-min Rain = 0
KDO1 191707Z 34021G27KT 02/M06 A3034 RMK A01 T00161064  RH  055%=      5-min Rain = 0
KDO1 191708Z 34023KT 02/M07 A3034 RMK A01 T00161065  RH  054%=      5-min Rain = 0
KDO1 191709Z 34021KT 02/M07 A3034 RMK A01 T00151067  RH  054%=      5-min Rain = 0
KDO1 191710Z 34017G23KT 02/M07 A3034 RMK A01 T00161065  RH  055%=      5-min Rain = 0
KDO1 191711Z 34017G22KT 02/M07 A3034 RMK A01 T00171065  RH  054%=      5-min Rain = 0
KDO1 191712Z 35019G26KT 02/M07 A3034 RMK A01 T00171065  RH  055%=      5-min Rain = 0
KDO1 191713Z 35020G26KT 02/M07 A3034 RMK A01 T00181065  RH  054%=      5-min Rain = 0
KDO1 191714Z 34021KT 02/M07 A3034 RMK A01 T00171065  RH  054%=      5-min Rain = 0
KDO1 191715Z 33021G27KT 02/M07 A3034 RMK A01 T00171065  RH  054%=      5-min Rain = 0
KDO1 191716Z 34019KT 02/M07 A3034 RMK A01 T00171065  RH  054%=      5-min Rain = 0
KDO1 191717Z 34020KT 02/M07 A3034 RMK A01 T00171066  RH  054%=      5-min Rain = 0
KDO1 191718Z 34018G23KT 02/M07 A3034 RMK A01 T00161066  RH  054%=      5-min Rain = 0
KDO1 191719Z 34020KT 02/M06 A3034 RMK A01 T00181064  RH  054%=      5-min Rain = 0
KDO1 191720Z 34021KT 02/M07 A3034 RMK A01 T00191066  RH  054%=      5-min Rain = 0
KDO1 191721Z 34014G21KT 02/M07 A3034 RMK A01 T00171066  RH  054%=      5-min Rain = 0
KDO1 191722Z 34021G27KT 02/M06 A3034 RMK A01 T00211061  RH  055%=      5-min Rain = 0
KDO1 191723Z 33021KT 02/M07 A3034 RMK A01 T00211065  RH  053%=      5-min Rain = 0
KDO1 191724Z 33018G23KT 02/M07 A3034 RMK A01 T00191066  RH  053%=      5-min Rain = 0
KDO1 191725Z 34024KT 02/M07 A3033 RMK A01 T00201065  RH  053%=      5-min Rain = 0
KDO1 191726Z 34021G26KT 02/M07 A3033 RMK A01 T00181067  RH  053%=      5-min Rain = 0
KDO1 191727Z 34018KT 02/M07 A3033 RMK A01 T00171066  RH  054%=      5-min Rain = 0
KDO1 191728Z 34018KT 02/M07 A3033 RMK A01 T00181066  RH  054%=      5-min Rain = 0
KDO1 191729Z 34019G25KT 02/M07 A3033 RMK A01 T00181065  RH  054%=      5-min Rain = 0
KDO1 191730Z 34021KT 02/M06 A3033 RMK A01 T00211063  RH  054%=      5-min Rain = 0
KDO1 191731Z 34019G26KT 02/M07 A3033 RMK A01 T00201066  RH  053%=      5-min Rain = 0
KDO1 191732Z 35019G24KT 02/M07 A3033 RMK A01 T00191066  RH  053%=      5-min Rain = 0
KDO1 191733Z 34024KT 02/M07 A3033 RMK A01 T00201066  RH  053%=      5-min Rain = 0
KDO1 191734Z 35022KT 02/M07 A3033 RMK A01 T00201067  RH  053%=      5-min Rain = 0
KDO1 191735Z 34020G25KT 02/M07 A3033 RMK A01 T00191067  RH  053%=      5-min Rain = 0
KDO1 191736Z 33020KT 02/M07 A3033 RMK A01 T00191065  RH  053%=      5-min Rain = 0
KDO1 191737Z 33018KT 02/M07 A3033 RMK A01 T00201065  RH  053%=      5-min Rain = 0
KDO1 191738Z 34014KT 02/M06 A3033 RMK A01 T00221063  RH  054%=      5-min Rain = 0
KDO1 191739Z 34020G26KT 02/M06 A3033 RMK A01 T00241062  RH  053%=      5-min Rain = 0
KDO1 191740Z 34021G28KT 02/M07 A3033 RMK A01 T00241065  RH  052%=      5-min Rain = 0
KDO1 191741Z 34021KT 02/M07 A3033 RMK A01 T00221066  RH  052%=      5-min Rain = 0
KDO1 191742Z 33023KT 02/M07 A3033 RMK A01 T00211066  RH  053%=      5-min Rain = 0
KDO1 191743Z 34021KT 02/M07 A3033 RMK A01 T00201067  RH  052%=      5-min Rain = 0
KDO1 191744Z 33021G27KT 02/M07 A3033 RMK A01 T00201066  RH  053%=      5-min Rain = 0
KDO1 191745Z 34021G28KT 02/M07 A3033 RMK A01 T00211067  RH  052%=      5-min Rain = 0
KDO1 191746Z 33024G29KT 02/M07 A3032 RMK A01 T00211067  RH  052%=      5-min Rain = 0
KDO1 191747Z 34021KT 02/M07 A3033 RMK A01 T00211067  RH  052%=      5-min Rain = 0
KDO1 191748Z 33021KT 02/M07 A3033 RMK A01 T00211066  RH  052%=      5-min Rain = 0
KDO1 191749Z 33020G26KT 02/M07 A3033 RMK A01 T00221066  RH  052%=      5-min Rain = 0
KDO1 191750Z 34019G25KT 02/M07 A3033 RMK A01 T00231065  RH  052%=      5-min Rain = 0
KDO1 191751Z 34019G25KT 02/M07 A3033 RMK A01 T00241066  RH  052%=      5-min Rain = 0
KDO1 191752Z 34020G25KT 02/M07 A3033 RMK A01 T00221067  RH  051%=      5-min Rain = 0
KDO1 191753Z 35022KT 02/M07 A3032 RMK A01 T00211068  RH  052%=      5-min Rain = 0
KDO1 191754Z 35025KT 02/M07 A3032 RMK A01 T00211068  RH  052%=      5-min Rain = 0
KDO1 191755Z 35021G27KT 02/M07 A3032 RMK A01 T00221068  RH  051%=      5-min Rain = 0
KDO1 191756Z 35021G31KT 02/M07 A3032 RMK A01 T00221068  RH  051%=      5-min Rain = 0
KDO1 191757Z 35025KT 02/M07 A3032 RMK A01 T00231070  RH  050%=      5-min Rain = 0
KDO1 191758Z 34023G28KT 02/M07 A3032 RMK A01 T00231071  RH  050%=      5-min Rain = 0
KDO1 191759Z 34024KT 02/M07 A3032 RMK A01 T00231071  RH  050%=      5-min Rain = 0
KDO1 191800Z 34020G26KT 02/M07 A3032 RMK A01 T00221072  RH  050%=      5-min Rain = 0
KDO1 191801Z 34023G29KT 02/M07 A3032 RMK A01 T00211072  RH  050%=      5-min Rain = 0
KDO1 191802Z 34020G25KT 02/M07 A3032 RMK A01 T00211072  RH  050%=      5-min Rain = 0
KDO1 191803Z 35022G28KT 02/M07 A3032 RMK A01 T00211071  RH  051%=      5-min Rain = 0
KDO1 191804Z 36019G25KT 02/M07 A3032 RMK A01 T00201073  RH  050%=      5-min Rain = 0
KDO1 191805Z 35019KT 02/M07 A3032 RMK A01 T00191073  RH  050%=      5-min Rain = 0
KDO1 191806Z 35017G22KT 02/M07 A3032 RMK A01 T00191072  RH  051%=      5-min Rain = 0
KDO1 191807Z 35016G22KT 02/M07 A3032 RMK A01 T00211069  RH  051%=      5-min Rain = 0
KDO1 191808Z 35019G26KT 03/M07 A3032 RMK A01 T00251069  RH  050%=      5-min Rain = 0
KDO1 191809Z 35023KT 02/M07 A3032 RMK A01 T00241072  RH  049%=      5-min Rain = 0
KDO1 191810Z 35022KT 02/M07 A3031 RMK A01 T00221072  RH  050%=      5-min Rain = 0
KDO1 191811Z 35020KT 02/M07 A3031 RMK A01 T00221072  RH  050%=      5-min Rain = 0
KDO1 191812Z 35019KT 02/M07 A3031 RMK A01 T00221071  RH  050%=      5-min Rain = 0
KDO1 191813Z 35018G23KT 02/M07 A3032 RMK A01 T00221072  RH  050%=      5-min Rain = 0
KDO1 191814Z 34020G28KT 02/M07 A3032 RMK A01 T00231071  RH  050%=      5-min Rain = 0
KDO1 191815Z 34021KT 02/M07 A3032 RMK A01 T00241072  RH  049%=      5-min Rain = 0
KDO1 191816Z 34017G22KT 02/M07 A3032 RMK A01 T00231072  RH  049%=      5-min Rain = 0
KDO1 191817Z 35021KT 03/M07 A3032 RMK A01 T00251071  RH  049%=      5-min Rain = 0
KDO1 191818Z 35016KT 03/M07 A3032 RMK A01 T00251072  RH  048%=      5-min Rain = 0
KDO1 191819Z 34020KT 03/M07 A3031 RMK A01 T00261072  RH  049%=      5-min Rain = 0
KDO1 191820Z 35018G26KT 03/M07 A3032 RMK A01 T00271072  RH  048%=      5-min Rain = 0
KDO1 191821Z 35017G23KT 03/M07 A3032 RMK A01 T00261073  RH  048%=      5-min Rain = 0
KDO1 191822Z 34019G26KT 03/M07 A3032 RMK A01 T00261072  RH  048%=      5-min Rain = 0
KDO1 191823Z 34018KT 03/M07 A3032 RMK A01 T00261074  RH  048%=      5-min Rain = 0
KDO1 191824Z 34016KT 03/M07 A3032 RMK A01 T00271074  RH  048%=      5-min Rain = 0
KDO1 191825Z 35015KT 03/M07 A3031 RMK A01 T00281072  RH  048%=      5-min Rain = 0
KDO1 191826Z 35015G22KT 03/M07 A3031 RMK A01 T00301072  RH  047%=      5-min Rain = 0
KDO1 191827Z 34018KT 03/M07 A3031 RMK A01 T00301072  RH  047%=      5-min Rain = 0
KDO1 191828Z 35019G25KT 03/M07 A3031 RMK A01 T00301073  RH  047%=      5-min Rain = 0
KDO1 191829Z 35019KT 03/M08 A3031 RMK A01 T00281076  RH  046%=      5-min Rain = 0
KDO1 191830Z 35020KT 03/M08 A3031 RMK A01 T00261076  RH  047%=      5-min Rain = 0
KDO1 191831Z 34019G24KT 03/M08 A3031 RMK A01 T00261076  RH  047%=      5-min Rain = 0
KDO1 191832Z 34021KT 03/M08 A3031 RMK A01 T00261077  RH  047%=      5-min Rain = 0
KDO1 191833Z 34020KT 03/M08 A3031 RMK A01 T00261077  RH  047%=      5-min Rain = 0
KDO1 191834Z 34016G21KT 02/M08 A3031 RMK A01 T00241078  RH  047%=      5-min Rain = 0
KDO1 191835Z 33018G26KT 03/M08 A3031 RMK A01 T00251075  RH  047%=      5-min Rain = 0
KDO1 191836Z 33021G30KT 03/M08 A3031 RMK A01 T00271075  RH  047%=      5-min Rain = 0
KDO1 191837Z 34017G22KT 03/M08 A3031 RMK A01 T00271076  RH  047%=      5-min Rain = 0
KDO1 191838Z 35019KT 03/M08 A3031 RMK A01 T00281076  RH  046%=      5-min Rain = 0
KDO1 191839Z 35020G25KT 03/M08 A3031 RMK A01 T00291076  RH  046%=      5-min Rain = 0
KDO1 191840Z 34017G22KT 03/M08 A3031 RMK A01 T00301075  RH  046%=      5-min Rain = 0
KDO1 191841Z 34017G22KT 03/M07 A3031 RMK A01 T00311074  RH  046%=      5-min Rain = 0
KDO1 191842Z 34018KT 03/M07 A3031 RMK A01 T00311074  RH  046%=      5-min Rain = 0
KDO1 191843Z 35018G24KT 03/M07 A3031 RMK A01 T00311074  RH  046%=      5-min Rain = 0
KDO1 191844Z 35020G26KT 03/M07 A3031 RMK A01 T00311074  RH  046%=      5-min Rain = 0
KDO1 191845Z 34023G29KT 03/M07 A3031 RMK A01 T00331073  RH  046%=      5-min Rain = 0
KDO1 191846Z 34022G27KT 03/M08 A3031 RMK A01 T00321075  RH  045%=      5-min Rain = 0
KDO1 191847Z 33020KT 03/M08 A3031 RMK A01 T00291075  RH  046%=      5-min Rain = 0
KDO1 191848Z 35021KT 03/M08 A3031 RMK A01 T00301075  RH  046%=      5-min Rain = 0
KDO1 191849Z 34019G27KT 03/M07 A3031 RMK A01 T00301074  RH  046%=      5-min Rain = 0
KDO1 191850Z 33018G25KT 03/M08 A303 RMK A01 T00301075  RH  046%=      5-min Rain = 0
KDO1 191851Z 34015G21KT 03/M07 A303 RMK A01 T00311071  RH  047%=      5-min Rain = 0
KDO1 191852Z 33017KT 03/M07 A303 RMK A01 T00321072  RH  046%=      5-min Rain = 0
KDO1 191853Z 34016KT 03/M07 A303 RMK A01 T00331070  RH  046%=      5-min Rain = 0
KDO1 191854Z 34018KT 03/M07 A303 RMK A01 T00341070  RH  046%=      5-min Rain = 0
KDO1 191855Z 35015KT 03/M07 A303 RMK A01 T00341071  RH  046%=      5-min Rain = 0
KDO1 191856Z 33013G18KT 04/M07 A303 RMK A01 T00361068  RH  046%=      5-min Rain = 0
KDO1 191857Z 33020KT 04/M07 A303 RMK A01 T00391069  RH  045%=      5-min Rain = 0
KDO1 191858Z 34015G20KT 04/M07 A303 RMK A01 T00361071  RH  046%=      5-min Rain = 0
KDO1 191859Z 34020G30KT 04/M07 A303 RMK A01 T00361069  RH  046%=      5-min Rain = 0
KDO1 191900Z 34019G28KT 04/M07 A303 RMK A01 T00361070  RH  046%=      5-min Rain = 0
KDO1 191901Z 34021KT 04/M07 A303 RMK A01 T00361069  RH  046%=      5-min Rain = 0
KDO1 191902Z 34020KT 04/M07 A303 RMK A01 T00351069  RH  047%=      5-min Rain = 0
KDO1 191903Z 34016KT 03/M07 A303 RMK A01 T00341069  RH  047%=      5-min Rain = 0
KDO1 191904Z 34022KT 04/M07 A303 RMK A01 T00351068  RH  047%=      5-min Rain = 0
KDO1 191905Z 34018G23KT 04/M07 A303 RMK A01 T00361068  RH  047%=      5-min Rain = 0
KDO1 191906Z 34023KT 04/M07 A303 RMK A01 T00361068  RH  046%=      5-min Rain = 0
KDO1 191907Z 33020G25KT 03/M07 A303 RMK A01 T00341069  RH  047%=      5-min Rain = 0
KDO1 191908Z 33019G24KT 04/M07 A303 RMK A01 T00351067  RH  047%=      5-min Rain = 0
KDO1 191909Z 32018KT 04/M07 A3029 RMK A01 T00351068  RH  047%=      5-min Rain = 0
KDO1 191910Z 34017KT 04/M07 A3029 RMK A01 T00361065  RH  048%=      5-min Rain = 0
KDO1 191911Z 34019G25KT 04/M06 A303 RMK A01 T00391064  RH  047%=      5-min Rain = 0
KDO1 191912Z 34020KT 04/M07 A3029 RMK A01 T00401067  RH  045%=      5-min Rain = 0
KDO1 191913Z 34017G22KT 04/M07 A303 RMK A01 T00381069  RH  045%=      5-min Rain = 0
KDO1 191914Z 34017G28KT 04/M07 A3029 RMK A01 T00381067  RH  046%=      5-min Rain = 0
KDO1 191915Z 33018G28KT 04/M07 A3029 RMK A01 T00401067  RH  046%=      5-min Rain = 0
KDO1 191916Z 34018G25KT 04/M07 A3029 RMK A01 T00391067  RH  046%=      5-min Rain = 0
KDO1 191917Z 34022KT 04/M07 A3029 RMK A01 T00391068  RH  045%=      5-min Rain = 0
KDO1 191918Z 34021G26KT 04/M07 A3029 RMK A01 T00361070  RH  046%=      5-min Rain = 0
KDO1 191919Z 34018KT 04/M07 A3029 RMK A01 T00361069  RH  046%=      5-min Rain = 0
KDO1 191920Z 35016G21KT 04/M07 A3029 RMK A01 T00371067  RH  047%=      5-min Rain = 0
KDO1 191921Z 35017G23KT 04/M07 A3029 RMK A01 T00401066  RH  046%=      5-min Rain = 0
KDO1 191922Z 35017G23KT 04/M07 A3029 RMK A01 T00401067  RH  046%=      5-min Rain = 0
KDO1 191923Z 35015KT 04/M07 A3029 RMK A01 T00401067  RH  046%=      5-min Rain = 0
KDO1 191924Z 33015KT 04/M07 A3029 RMK A01 T00401067  RH  046%=      5-min Rain = 0
KDO1 191925Z 32015KT 04/M07 A3029 RMK A01 T00401067  RH  046%=      5-min Rain = 0
KDO1 191926Z 34013G18KT 04/M07 A3029 RMK A01 T00391067  RH  046%=      5-min Rain = 0
KDO1 191927Z 35017G24KT 04/M07 A3029 RMK A01 T00391066  RH  046%=      5-min Rain = 0
KDO1 191928Z 35018G25KT 04/M07 A3029 RMK A01 T00401068  RH  045%=      5-min Rain = 0
KDO1 191929Z 35015G20KT 04/M07 A3029 RMK A01 T00381069  RH  045%=      5-min Rain = 0
KDO1 191930Z 00017KT 04/M07 A3029 RMK A01 T00391067  RH  046%=      5-min Rain = 0
KDO1 191931Z 35016KT 04/M07 A3029 RMK A01 T00421066  RH  045%=      5-min Rain = 0
KDO1 191932Z 34015KT 04/M07 A3029 RMK A01 T00431067  RH  045%=      5-min Rain = 0
KDO1 191933Z 34011KT 04/M06 A3028 RMK A01 T00441064  RH  045%=      5-min Rain = 0
KDO1 191934Z 36014G23KT 05/M06 A3028 RMK A01 T00471063  RH  045%=      5-min Rain = 0
KDO1 191935Z 36014G21KT 05/M07 A3028 RMK A01 T00481065  RH  044%=      5-min Rain = 0
KDO1 191936Z 35016KT 05/M07 A3028 RMK A01 T00471067  RH  044%=      5-min Rain = 0
KDO1 191937Z 34015KT 05/M07 A3028 RMK A01 T00451067  RH  044%=      5-min Rain = 0
KDO1 191938Z 35015KT 04/M07 A3028 RMK A01 T00441066  RH  044%=      5-min Rain = 0
KDO1 191939Z 34014G20KT 04/M07 A3028 RMK A01 T00431069  RH  044%=      5-min Rain = 0
KDO1 191940Z 00014G19KT 04/M07 A3027 RMK A01 T00411069  RH  044%=      5-min Rain = 0
KDO1 191941Z 00015G21KT 04/M07 A3027 RMK A01 T00401069  RH  045%=      5-min Rain = 0
KDO1 191942Z 00014KT 04/M07 A3027 RMK A01 T00401070  RH  044%=      5-min Rain = 0
KDO1 191943Z 00012G18KT 04/M07 A3027 RMK A01 T00391069  RH  045%=      5-min Rain = 0
KDO1 191944Z 01014G20KT 04/M07 A3027 RMK A01 T00411069  RH  044%=      5-min Rain = 0
KDO1 191945Z 35014KT 04/M07 A3027 RMK A01 T00411069  RH  044%=      5-min Rain = 0
KDO1 191946Z 01013G19KT 04/M07 A3027 RMK A01 T00411070  RH  044%=      5-min Rain = 0
KDO1 191947Z 35017KT 04/M07 A3027 RMK A01 T00411069  RH  044%=      5-min Rain = 0
KDO1 191948Z 35016KT 04/M07 A3027 RMK A01 T00411070  RH  044%=      5-min Rain = 0
KDO1 191949Z 35016G22KT 04/M07 A3027 RMK A01 T00401070  RH  045%=      5-min Rain = 0
KDO1 191950Z 35018KT 04/M07 A3027 RMK A01 T00411070  RH  044%=      5-min Rain = 0
KDO1 191951Z 34018KT 04/M07 A3027 RMK A01 T00411071  RH  044%=      5-min Rain = 0
KDO1 191952Z 34017KT 04/M07 A3027 RMK A01 T00401071  RH  044%=      5-min Rain = 0
KDO1 191953Z 35015KT 04/M07 A3027 RMK A01 T00401071  RH  044%=      5-min Rain = 0
KDO1 191954Z 34013KT 04/M07 A3027 RMK A01 T00401071  RH  044%=      5-min Rain = 0
KDO1 191955Z 35017KT 04/M07 A3027 RMK A01 T00401070  RH  045%=      5-min Rain = 0
KDO1 191956Z 00016G21KT 04/M07 A3027 RMK A01 T00401071  RH  044%=      5-min Rain = 0
KDO1 191957Z 36014G19KT 04/M07 A3027 RMK A01 T00421071  RH  044%=      5-min Rain = 0
KDO1 191958Z 35012KT 04/M07 A3027 RMK A01 T00421072  RH  043%=      5-min Rain = 0
KDO1 191959Z 35013KT 04/M07 A3027 RMK A01 T00431069  RH  044%=      5-min Rain = 0
KDO1 192000Z 36015KT 05/M07 A3027 RMK A01 T00451070  RH  043%=      5-min Rain = 0
KDO1 192001Z 34015G21KT 04/M07 A3027 RMK A01 T00441070  RH  043%=      5-min Rain = 0
KDO1 192002Z 33017KT 05/M07 A3027 RMK A01 T00451070  RH  043%=      5-min Rain = 0
KDO1 192003Z 34015KT 04/M07 A3027 RMK A01 T00431072  RH  043%=      5-min Rain = 0
KDO1 192004Z 35013G18KT 04/M07 A3027 RMK A01 T00421071  RH  043%=      5-min Rain = 0
KDO1 192005Z 35015G20KT 04/M07 A3027 RMK A01 T00431070  RH  043%=      5-min Rain = 0
KDO1 192006Z 36014KT 04/M07 A3027 RMK A01 T00441071  RH  043%=      5-min Rain = 0
KDO1 192007Z 35018KT 05/M07 A3027 RMK A01 T00461070  RH  043%=      5-min Rain = 0
KDO1 192008Z 35016KT 05/M07 A3027 RMK A01 T00461072  RH  042%=      5-min Rain = 0
KDO1 192009Z 35014KT 04/M07 A3026 RMK A01 T00441072  RH  042%=      5-min Rain = 0
KDO1 192010Z 34011KT 05/M07 A3026 RMK A01 T00451071  RH  043%=      5-min Rain = 0
KDO1 192011Z 34015KT 05/M07 A3026 RMK A01 T00471071  RH  042%=      5-min Rain = 0
KDO1 192012Z 34012G17KT 05/M07 A3026 RMK A01 T00471070  RH  042%=      5-min Rain = 0
KDO1 192013Z 35014KT 05/M07 A3027 RMK A01 T00471072  RH  042%=      5-min Rain = 0
KDO1 192014Z 35012G17KT 04/M08 A3026 RMK A01 T00431076  RH  042%=      5-min Rain = 0
KDO1 192015Z 35017G22KT 04/M07 A3026 RMK A01 T00421074  RH  043%=      5-min Rain = 0
KDO1 192016Z 00019KT 04/M07 A3027 RMK A01 T00431073  RH  042%=      5-min Rain = 0
KDO1 192017Z 34017KT 04/M07 A3027 RMK A01 T00441074  RH  042%=      5-min Rain = 0
KDO1 192018Z 34013KT 04/M07 A3026 RMK A01 T00431073  RH  043%=      5-min Rain = 0
KDO1 192019Z 35011KT 05/M07 A3026 RMK A01 T00451070  RH  043%=      5-min Rain = 0
KDO1 192020Z 35014KT 05/M07 A3026 RMK A01 T00491069  RH  042%=      5-min Rain = 0
KDO1 192021Z 34018KT 05/M07 A3026 RMK A01 T00501071  RH  041%=      5-min Rain = 0
KDO1 192022Z 33015KT 05/M07 A3026 RMK A01 T00471073  RH  041%=      5-min Rain = 0
KDO1 192023Z 34014KT 05/M07 A3026 RMK A01 T00461072  RH  042%=      5-min Rain = 0
KDO1 192024Z 35015KT 05/M07 A3026 RMK A01 T00471072  RH  042%=      5-min Rain = 0
KDO1 192025Z 35015KT 05/M07 A3026 RMK A01 T00471072  RH  042%=      5-min Rain = 0
KDO1 192026Z 35014G19KT 05/M07 A3026 RMK A01 T00481071  RH  042%=      5-min Rain = 0
KDO1 192027Z 36016G21KT 05/M07 A3026 RMK A01 T00501070  RH  041%=      5-min Rain = 0
KDO1 192028Z 35016KT 05/M07 A3026 RMK A01 T00511071  RH  041%=      5-min Rain = 0
KDO1 192029Z 34011KT 05/M07 A3026 RMK A01 T00491074  RH  041%=      5-min Rain = 0
KDO1 192030Z 33011KT 05/M07 A3026 RMK A01 T00471073  RH  041%=      5-min Rain = 0
KDO1 192031Z 35015G21KT 05/M07 A3026 RMK A01 T00491070  RH  042%=      5-min Rain = 0
KDO1 192032Z 34016KT 05/M07 A3026 RMK A01 T00511070  RH  041%=      5-min Rain = 0
KDO1 192033Z 34013KT 05/M07 A3026 RMK A01 T00511072  RH  041%=      5-min Rain = 0
KDO1 192034Z 32015KT 05/M07 A3026 RMK A01 T00501072  RH  041%=      5-min Rain = 0
KDO1 192035Z 34017G23KT 05/M07 A3026 RMK A01 T00491073  RH  041%=      5-min Rain = 0
KDO1 192036Z 34018KT 05/M07 A3026 RMK A01 T00491073  RH  041%=      5-min Rain = 0
KDO1 192037Z 34012KT 05/M07 A3026 RMK A01 T00491074  RH  041%=      5-min Rain = 0
KDO1 192038Z 34017KT 05/M07 A3026 RMK A01 T00491073  RH  041%=      5-min Rain = 0
KDO1 192039Z 34017KT 05/M07 A3026 RMK A01 T00491074  RH  041%=      5-min Rain = 0
KDO1 192040Z 35015KT 05/M07 A3026 RMK A01 T00491073  RH  041%=      5-min Rain = 0
KDO1 192041Z 35010KT 05/M07 A3026 RMK A01 T00491074  RH  041%=      5-min Rain = 0
KDO1 192042Z 34013KT 05/M07 A3026 RMK A01 T00511071  RH  041%=      5-min Rain = 0
KDO1 192043Z 34011KT 05/M07 A3026 RMK A01 T00521072  RH  040%=      5-min Rain = 0
KDO1 192044Z 35018KT 05/M07 A3026 RMK A01 T00541070  RH  040%=      5-min Rain = 0
KDO1 192045Z 35017KT 06/M07 A3026 RMK A01 T00551071  RH  040%=      5-min Rain = 0
KDO1 192046Z 34011G19KT 05/M07 A3026 RMK A01 T00531072  RH  040%=      5-min Rain = 0
KDO1 192047Z 34018KT 06/M07 A3026 RMK A01 T00551069  RH  041%=      5-min Rain = 0
KDO1 192048Z 34015KT 05/M07 A3026 RMK A01 T00541071  RH  040%=      5-min Rain = 0
KDO1 192049Z 33017G22KT 05/M07 A3026 RMK A01 T00531070  RH  041%=      5-min Rain = 0
KDO1 192050Z 33016G21KT 05/M07 A3026 RMK A01 T00521071  RH  040%=      5-min Rain = 0
KDO1 192051Z 32018KT 05/M07 A3025 RMK A01 T00511070  RH  041%=      5-min Rain = 0
KDO1 192052Z 35013G19KT 05/M07 A3026 RMK A01 T00531068  RH  041%=      5-min Rain = 0
KDO1 192053Z 00013G18KT 06/M07 A3026 RMK A01 T00561067  RH  041%=      5-min Rain = 0
KDO1 192054Z 34013KT 06/M07 A3026 RMK A01 T00571069  RH  040%=      5-min Rain = 0
KDO1 192055Z 34013G18KT 06/M07 A3026 RMK A01 T00551071  RH  040%=      5-min Rain = 0
KDO1 192056Z 35013G19KT 06/M07 A3026 RMK A01 T00561068  RH  041%=      5-min Rain = 0
KDO1 192057Z 35015KT 06/M07 A3026 RMK A01 T00561069  RH  040%=      5-min Rain = 0
KDO1 192058Z 34013G19KT 06/M07 A3026 RMK A01 T00551069  RH  041%=      5-min Rain = 0
KDO1 192059Z 34011G16KT 06/M07 A3026 RMK A01 T00551069  RH  041%=      5-min Rain = 0
KDO1 192100Z 35011KT 05/M07 A3026 RMK A01 T00541069  RH  041%=      5-min Rain = 0
KDO1 192101Z 34012G17KT 06/M07 A3026 RMK A01 T00551068  RH  041%=      5-min Rain = 0
KDO1 192102Z 34015KT 06/M07 A3026 RMK A01 T00561067  RH  041%=      5-min Rain = 0
KDO1 192103Z 34013G19KT 06/M07 A3026 RMK A01 T00561067  RH  041%=      5-min Rain = 0
KDO1 192104Z 34017KT 06/M07 A3025 RMK A01 T00561069  RH  040%=      5-min Rain = 0
KDO1 192105Z 34015KT 05/M07 A3026 RMK A01 T00541069  RH  041%=      5-min Rain = 0
KDO1 192106Z 34012KT 05/M07 A3026 RMK A01 T00541068  RH  041%=      5-min Rain = 0
KDO1 192107Z 33017KT 06/M07 A3026 RMK A01 T00571066  RH  041%=      5-min Rain = 0
KDO1 192108Z 33017KT 06/M07 A3026 RMK A01 T00571067  RH  040%=      5-min Rain = 0
KDO1 192109Z 33014KT 06/M07 A3026 RMK A01 T00561067  RH  041%=      5-min Rain = 0
KDO1 192110Z 34018KT 06/M07 A3026 RMK A01 T00561068  RH  041%=      5-min Rain = 0
KDO1 192111Z 35014KT 05/M07 A3026 RMK A01 T00531070  RH  041%=      5-min Rain = 0
KDO1 192112Z 33016G21KT 05/M07 A3026 RMK A01 T00541066  RH  042%=      5-min Rain = 0
KDO1 192113Z 34018G24KT 06/M07 A3026 RMK A01 T00551066  RH  042%=      5-min Rain = 0
KDO1 192114Z 34017G22KT 06/M07 A3026 RMK A01 T00551066  RH  041%=      5-min Rain = 0
KDO1 192115Z 34017KT 06/M07 A3026 RMK A01 T00551065  RH  042%=      5-min Rain = 0
KDO1 192116Z 35016KT 06/M07 A3026 RMK A01 T00561065  RH  041%=      5-min Rain = 0
KDO1 192117Z 34015KT 06/M07 A3026 RMK A01 T00551066  RH  041%=      5-min Rain = 0
KDO1 192118Z 35014KT 05/M07 A3026 RMK A01 T00541067  RH  041%=      5-min Rain = 0
KDO1 192119Z 35013KT 05/M07 A3026 RMK A01 T00541067  RH  041%=      5-min Rain = 0
KDO1 192120Z 35015KT 05/M07 A3026 RMK A01 T00541068  RH  041%=      5-min Rain = 0
KDO1 192121Z 36015G20KT 05/M07 A3026 RMK A01 T00541068  RH  041%=      5-min Rain = 0
KDO1 192122Z 35017KT 06/M06 A3026 RMK A01 T00551064  RH  042%=      5-min Rain = 0
KDO1 192123Z 35015KT 06/M06 A3026 RMK A01 T00571063  RH  042%=      5-min Rain = 0
KDO1 192124Z 34016KT 06/M06 A3026 RMK A01 T00581062  RH  042%=      5-min Rain = 0
KDO1 192125Z 35017KT 06/M06 A3026 RMK A01 T00581063  RH  042%=      5-min Rain = 0
KDO1 192126Z 35012KT 06/M07 A3026 RMK A01 T00551065  RH  041%=      5-min Rain = 0
KDO1 192127Z 34012KT 06/M06 A3026 RMK A01 T00551064  RH  042%=      5-min Rain = 0
KDO1 192128Z 34017KT 06/M06 A3026 RMK A01 T00551064  RH  042%=      5-min Rain = 0
KDO1 192129Z 33015KT 06/M06 A3026 RMK A01 T00561062  RH  042%=      5-min Rain = 0
KDO1 192130Z 35011KT 06/M06 A3027 RMK A01 T00571061  RH  042%=      5-min Rain = 0
KDO1 192131Z 35014KT 06/M06 A3027 RMK A01 T00591061  RH  042%=      5-min Rain = 0
KDO1 192132Z 34013KT 06/M06 A3027 RMK A01 T00591059  RH  042%=      5-min Rain = 0
KDO1 192133Z 33012KT 06/M06 A3027 RMK A01 T00581058  RH  043%=      5-min Rain = 0
KDO1 192134Z 34013G19KT 06/M06 A3027 RMK A01 T00591057  RH  043%=      5-min Rain = 0
KDO1 192135Z 34014G20KT 06/M06 A3027 RMK A01 T00591060  RH  042%=      5-min Rain = 0
KDO1 192136Z 34015KT 06/M06 A3026 RMK A01 T00581060  RH  042%=      5-min Rain = 0
KDO1 192137Z 34016KT 06/M06 A3026 RMK A01 T00581059  RH  043%=      5-min Rain = 0
KDO1 192138Z 33015KT 06/M06 A3026 RMK A01 T00581058  RH  043%=      5-min Rain = 0
KDO1 192139Z 33015KT 06/M06 A3027 RMK A01 T00591056  RH  043%=      5-min Rain = 0
KDO1 192140Z 33017KT 06/M06 A3027 RMK A01 T00581057  RH  044%=      5-min Rain = 0
KDO1 192141Z 34013G18KT 06/M06 A3027 RMK A01 T00581055  RH  044%=      5-min Rain = 0
KDO1 192142Z 33012KT 06/M05 A3027 RMK A01 T00591052  RH  045%=      5-min Rain = 0
KDO1 192143Z 34014G19KT 06/M05 A3027 RMK A01 T00621052  RH  044%=      5-min Rain = 0
KDO1 192144Z 34015G22KT 06/M05 A3027 RMK A01 T00621054  RH  043%=      5-min Rain = 0
KDO1 192145Z 33017KT 06/M05 A3027 RMK A01 T00611054  RH  043%=      5-min Rain = 0
KDO1 192146Z 33015KT 06/M06 A3027 RMK A01 T00591055  RH  044%=      5-min Rain = 0
KDO1 192147Z 32017KT 06/M06 A3027 RMK A01 T00581055  RH  044%=      5-min Rain = 0
KDO1 192148Z 32016KT 06/M06 A3027 RMK A01 T00571055  RH  044%=      5-min Rain = 0
KDO1 192149Z 33014G20KT 06/M06 A3027 RMK A01 T00581055  RH  044%=      5-min Rain = 0
KDO1 192150Z 34015KT 06/M06 A3027 RMK A01 T00591055  RH  044%=      5-min Rain = 0
KDO1 192151Z 34019KT 06/M06 A3027 RMK A01 T00591056  RH  043%=      5-min Rain = 0
KDO1 192152Z 34016KT 06/M06 A3027 RMK A01 T00581057  RH  044%=      5-min Rain = 0
KDO1 192153Z 34012KT 06/M06 A3027 RMK A01 T00581055  RH  044%=      5-min Rain = 0
KDO1 192154Z 34011G18KT 06/M05 A3027 RMK A01 T00591054  RH  044%=      5-min Rain = 0
KDO1 192155Z 34013G20KT 06/M05 A3027 RMK A01 T00601053  RH  044%=      5-min Rain = 0
KDO1 192156Z 33015KT 06/M05 A3027 RMK A01 T00611054  RH  043%=      5-min Rain = 0
KDO1 192157Z 32013KT 06/M05 A3027 RMK A01 T00601054  RH  044%=      5-min Rain = 0
KDO1 192158Z 33013G18KT 06/M05 A3027 RMK A01 T00591054  RH  044%=      5-min Rain = 0
KDO1 192159Z 33014KT 06/M05 A3027 RMK A01 T00601054  RH  044%=      5-min Rain = 0
KDO1 192200Z 34011KT 06/M05 A3027 RMK A01 T00601053  RH  044%=      5-min Rain = 0
KDO1 192201Z 33011G18KT 06/M05 A3027 RMK A01 T00611052  RH  044%=      5-min Rain = 0
KDO1 192202Z 33013KT 06/M05 A3027 RMK A01 T00621052  RH  044%=      5-min Rain = 0
KDO1 192203Z 34010KT 06/M05 A3027 RMK A01 T00601053  RH  044%=      5-min Rain = 0
KDO1 192204Z 34011G19KT 06/M05 A3027 RMK A01 T00611052  RH  044%=      5-min Rain = 0
KDO1 192205Z 33015KT 06/M05 A3027 RMK A01 T00631053  RH  043%=      5-min Rain = 0
KDO1 192206Z 34015KT 06/M06 A3027 RMK A01 T00611056  RH  043%=      5-min Rain = 0
KDO1 192207Z 34014KT 06/M06 A3027 RMK A01 T00591056  RH  044%=      5-min Rain = 0
KDO1 192208Z 35016KT 06/M06 A3027 RMK A01 T00581056  RH  044%=      5-min Rain = 0
KDO1 192209Z 34016KT 06/M06 A3027 RMK A01 T00571056  RH  044%=      5-min Rain = 0
KDO1 192210Z 34013KT 06/M06 A3027 RMK A01 T00571055  RH  044%=      5-min Rain = 0
KDO1 192211Z 35014KT 06/M06 A3027 RMK A01 T00561056  RH  044%=      5-min Rain = 0
KDO1 192212Z 33017KT 06/M06 A3027 RMK A01 T00571056  RH  044%=      5-min Rain = 0
KDO1 192213Z 33015KT 06/M06 A3027 RMK A01 T00561056  RH  044%=      5-min Rain = 0
KDO1 192214Z 34015KT 06/M06 A3027 RMK A01 T00561056  RH  044%=      5-min Rain = 0
KDO1 192215Z 35015KT 06/M06 A3027 RMK A01 T00561056  RH  044%=      5-min Rain = 0
KDO1 192216Z 35013KT 06/M05 A3027 RMK A01 T00561054  RH  045%=      5-min Rain = 0
KDO1 192217Z 34012G17KT 06/M05 A3027 RMK A01 T00571054  RH  045%=      5-min Rain = 0
KDO1 192218Z 34012G17KT 06/M05 A3027 RMK A01 T00571052  RH  045%=      5-min Rain = 0
KDO1 192219Z 33015KT 06/M05 A3027 RMK A01 T00581052  RH  045%=      5-min Rain = 0
KDO1 192220Z 32017KT 06/M05 A3027 RMK A01 T00571052  RH  045%=      5-min Rain = 0
KDO1 192221Z 32016KT 06/M05 A3028 RMK A01 T00571051  RH  046%=      5-min Rain = 0
KDO1 192222Z 32014KT 06/M05 A3028 RMK A01 T00571051  RH  046%=      5-min Rain = 0
KDO1 192223Z 32015KT 06/M05 A3028 RMK A01 T00571050  RH  046%=      5-min Rain = 0
KDO1 192224Z 33013G18KT 06/M05 A3028 RMK A01 T00571051  RH  046%=      5-min Rain = 0
KDO1 192225Z 32015KT 06/M05 A3028 RMK A01 T00571051  RH  046%=      5-min Rain = 0
KDO1 192226Z 33017KT 06/M05 A3028 RMK A01 T00561051  RH  046%=      5-min Rain = 0
KDO1 192227Z 33014KT 06/M05 A3028 RMK A01 T00561051  RH  046%=      5-min Rain = 0
KDO1 192228Z 33016KT 06/M05 A3028 RMK A01 T00561051  RH  046%=      5-min Rain = 0
KDO1 192229Z 34017KT 06/M05 A3028 RMK A01 T00551051  RH  046%=      5-min Rain = 0
KDO1 192230Z 34015KT 05/M05 A3028 RMK A01 T00541051  RH  047%=      5-min Rain = 0
KDO1 192231Z 35013KT 05/M05 A3028 RMK A01 T00541049  RH  047%=      5-min Rain = 0
KDO1 192232Z 34012KT 06/M05 A3028 RMK A01 T00551048  RH  047%=      5-min Rain = 0
KDO1 192233Z 34014KT 06/M05 A3028 RMK A01 T00551048  RH  047%=      5-min Rain = 0
KDO1 192234Z 33011KT 06/M05 A3028 RMK A01 T00561047  RH  047%=      5-min Rain = 0
KDO1 192235Z 33012KT 06/M05 A3028 RMK A01 T00551047  RH  048%=      5-min Rain = 0
KDO1 192236Z 34014KT 06/M05 A3028 RMK A01 T00561047  RH  048%=      5-min Rain = 0
KDO1 192237Z 34013KT 06/M05 A3028 RMK A01 T00551047  RH  048%=      5-min Rain = 0
KDO1 192238Z 34012KT 05/M05 A3028 RMK A01 T00541047  RH  048%=      5-min Rain = 0
KDO1 192239Z 31013KT 05/M05 A3028 RMK A01 T00541047  RH  048%=      5-min Rain = 0
KDO1 192240Z 33015G20KT 06/M05 A3028 RMK A01 T00551047  RH  048%=      5-min Rain = 0
KDO1 192241Z 34012KT 06/M05 A3028 RMK A01 T00551048  RH  048%=      5-min Rain = 0
KDO1 192242Z 33016KT 06/M05 A3028 RMK A01 T00551047  RH  048%=      5-min Rain = 0
KDO1 192243Z 34015KT 06/M05 A3028 RMK A01 T00551047  RH  048%=      5-min Rain = 0
KDO1 192244Z 35013KT 05/M05 A3028 RMK A01 T00541047  RH  048%=      5-min Rain = 0
KDO1 192245Z 34016KT 05/M05 A3028 RMK A01 T00541047  RH  048%=      5-min Rain = 0
KDO1 192246Z 34014KT 05/M05 A3028 RMK A01 T00541047  RH  048%=      5-min Rain = 0
KDO1 192247Z 33014KT 05/M05 A3028 RMK A01 T00541047  RH  048%=      5-min Rain = 0
KDO1 192248Z 34012KT 05/M05 A3028 RMK A01 T00541047  RH  048%=      5-min Rain = 0
KDO1 192249Z 35012KT 05/M05 A3028 RMK A01 T00541047  RH  048%=      5-min Rain = 0
KDO1 192250Z 35011KT 05/M05 A3028 RMK A01 T00541047  RH  048%=      5-min Rain = 0
KDO1 192251Z 35010KT 05/M05 A3028 RMK A01 T00541046  RH  048%=      5-min Rain = 0
KDO1 192252Z 34009KT 05/M05 A3028 RMK A01 T00541046  RH  049%=      5-min Rain = 0
KDO1 192253Z 36008KT 05/M05 A3028 RMK A01 T00541045  RH  049%=      5-min Rain = 0
KDO1 192254Z 35010KT 06/M04 A3028 RMK A01 T00551044  RH  049%=      5-min Rain = 0
KDO1 192255Z 34010KT 06/M04 A3028 RMK A01 T00551044  RH  049%=      5-min Rain = 0
KDO1 192256Z 33011KT 06/M04 A3028 RMK A01 T00551043  RH  049%=      5-min Rain = 0
KDO1 192257Z 34011KT 06/M04 A3028 RMK A01 T00551044  RH  049%=      5-min Rain = 0
KDO1 192258Z 35009KT 05/M04 A3028 RMK A01 T00541043  RH  050%=      5-min Rain = 0
KDO1 192259Z 34009KT 05/M04 A3028 RMK A01 T00541042  RH  050%=      5-min Rain = 0
KDO1 192300Z 34008KT 05/M04 A3028 RMK A01 T00541042  RH  050%=      5-min Rain = 0
KDO1 192301Z 34009KT 06/M04 A3028 RMK A01 T00551041  RH  050%=      5-min Rain = 0
KDO1 192302Z 34008KT 06/M04 A3028 RMK A01 T00551041  RH  050%=      5-min Rain = 0
KDO1 192303Z 33009KT 06/M04 A3028 RMK A01 T00551041  RH  050%=      5-min Rain = 0
KDO1 192304Z 33010KT 06/M04 A3028 RMK A01 T00551041  RH  050%=      5-min Rain = 0
KDO1 192305Z 33012G17KT 06/M04 A3028 RMK A01 T00551041  RH  050%=      5-min Rain = 0
KDO1 192306Z 33015KT 05/M04 A3028 RMK A01 T00541042  RH  050%=      5-min Rain = 0
KDO1 192307Z 33013KT 05/M04 A3028 RMK A01 T00531042  RH  050%=      5-min Rain = 0
KDO1 192308Z 33012KT 05/M04 A3028 RMK A01 T00531042  RH  051%=      5-min Rain = 0
KDO1 192309Z 34012KT 05/M04 A3028 RMK A01 T00531041  RH  051%=      5-min Rain = 0
KDO1 192310Z 34010KT 05/M04 A3028 RMK A01 T00531041  RH  051%=      5-min Rain = 0
KDO1 192311Z 33010KT 05/M04 A3028 RMK A01 T00521041  RH  051%=      5-min Rain = 0
KDO1 192312Z 33011KT 05/M04 A3028 RMK A01 T00531041  RH  051%=      5-min Rain = 0
KDO1 192313Z 33010KT 05/M04 A3028 RMK A01 T00521041  RH  051%=      5-min Rain = 0
KDO1 192314Z 33010KT 05/M04 A3028 RMK A01 T00521041  RH  051%=      5-min Rain = 0
KDO1 192315Z 33011KT 05/M04 A3028 RMK A01 T00521040  RH  051%=      5-min Rain = 0
KDO1 192316Z 34011KT 05/M04 A3028 RMK A01 T00521042  RH  051%=      5-min Rain = 0
KDO1 192317Z 34009KT 05/M04 A3028 RMK A01 T00521041  RH  051%=      5-min Rain = 0
KDO1 192318Z 34012KT 05/M04 A3028 RMK A01 T00521040  RH  051%=      5-min Rain = 0
KDO1 192319Z 34011KT 05/M04 A3028 RMK A01 T00511041  RH  051%=      5-min Rain = 0
KDO1 192320Z 34011KT 05/M04 A3028 RMK A01 T00511041  RH  051%=      5-min Rain = 0
KDO1 192321Z 34012KT 05/M04 A3028 RMK A01 T00501041  RH  052%=      5-min Rain = 0
KDO1 192322Z 34012KT 05/M04 A3028 RMK A01 T00501041  RH  052%=      5-min Rain = 0
KDO1 192323Z 35012KT 05/M04 A3028 RMK A01 T00501040  RH  052%=      5-min Rain = 0
KDO1 192324Z 35012KT 05/M04 A3028 RMK A01 T00491040  RH  052%=      5-min Rain = 0
KDO1 192325Z 35012KT 05/M04 A3028 RMK A01 T00491040  RH  053%=      5-min Rain = 0
KDO1 192326Z 34011KT 05/M04 A3028 RMK A01 T00491039  RH  053%=      5-min Rain = 0
KDO1 192327Z 34012KT 05/M04 A3028 RMK A01 T00491039  RH  053%=      5-min Rain = 0
KDO1 192328Z 34011KT 05/M04 A3028 RMK A01 T00481039  RH  053%=      5-min Rain = 0
KDO1 192329Z 34009KT 05/M04 A3028 RMK A01 T00491039  RH  053%=      5-min Rain = 0
KDO1 192330Z 34010KT 05/M04 A3028 RMK A01 T00481039  RH  053%=      5-min Rain = 0
KDO1 192331Z 34008KT 05/M04 A3028 RMK A01 T00481039  RH  053%=      5-min Rain = 0
KDO1 192332Z 34009KT 05/M04 A3028 RMK A01 T00481039  RH  054%=      5-min Rain = 0
KDO1 192333Z 34009KT 05/M04 A3028 RMK A01 T00471039  RH  054%=      5-min Rain = 0
KDO1 192334Z 34009KT 05/M04 A3029 RMK A01 T00471039  RH  054%=      5-min Rain = 0
KDO1 192335Z 34010KT 05/M04 A3029 RMK A01 T00471039  RH  054%=      5-min Rain = 0
KDO1 192336Z 33008KT 05/M04 A3029 RMK A01 T00471039  RH  054%=      5-min Rain = 0
KDO1 192337Z 34008KT 05/M04 A3029 RMK A01 T00461039  RH  054%=      5-min Rain = 0
KDO1 192338Z 34007KT 05/M04 A3029 RMK A01 T00461039  RH  054%=      5-min Rain = 0
KDO1 192339Z 34008KT 05/M04 A3029 RMK A01 T00451039  RH  054%=      5-min Rain = 0
KDO1 192340Z 34009KT 05/M04 A3029 RMK A01 T00451039  RH  055%=      5-min Rain = 0
KDO1 192341Z 35010KT 04/M04 A3029 RMK A01 T00441039  RH  055%=      5-min Rain = 0
KDO1 192342Z 34009KT 04/M04 A3029 RMK A01 T00441039  RH  055%=      5-min Rain = 0
KDO1 192343Z 34008KT 04/M04 A3029 RMK A01 T00431038  RH  055%=      5-min Rain = 0
KDO1 192344Z 34009KT 04/M04 A3029 RMK A01 T00421039  RH  056%=      5-min Rain = 0
KDO1 192345Z 34008KT 04/M04 A3029 RMK A01 T00421038  RH  056%=      5-min Rain = 0
KDO1 192346Z 34008KT 04/M04 A3029 RMK A01 T00421037  RH  056%=      5-min Rain = 0
KDO1 192347Z 34009KT 04/M04 A3029 RMK A01 T00421037  RH  056%=      5-min Rain = 0
KDO1 192348Z 33007KT 04/M04 A3029 RMK A01 T00421037  RH  056%=      5-min Rain = 0
KDO1 192349Z 34007KT 04/M04 A3029 RMK A01 T00421037  RH  056%=      5-min Rain = 0
KDO1 192350Z 34006KT 04/M04 A3029 RMK A01 T00411037  RH  057%=      5-min Rain = 0
KDO1 192351Z 34006KT 04/M04 A3029 RMK A01 T00401037  RH  057%=      5-min Rain = 0
KDO1 192352Z 35007KT 04/M04 A3029 RMK A01 T00391038  RH  057%=      5-min Rain = 0
KDO1 192353Z 34006KT 04/M04 A3029 RMK A01 T00391037  RH  057%=      5-min Rain = 0
KDO1 192354Z 34007KT 04/M04 A3029 RMK A01 T00381038  RH  058%=      5-min Rain = 0
KDO1 192355Z 34005KT 04/M04 A3029 RMK A01 T00371038  RH  058%=      5-min Rain = 0
KDO1 192356Z 34006KT 04/M04 A3029 RMK A01 T00361038  RH  058%=      5-min Rain = 0
KDO1 192357Z 35006KT 04/M04 A3029 RMK A01 T00361038  RH  058%=      5-min Rain = 0
KDO1 192358Z 34006KT 04/M04 A3029 RMK A01 T00351039  RH  059%=      5-min Rain = 0
KDO1 192359Z 34006KT 03/M04 A3029 RMK A01 T00341038  RH  059%=      5-min Rain = 0
KDO1 200000Z 34007KT 03/M04 A3029 RMK A01 T00341038  RH  059%=      5-min Rain = 0
KDO1 200001Z 34007KT 03/M04 A3029 RMK A01 T00331039  RH  059%=      5-min Rain = 0
KDO1 200002Z 34006KT 03/M04 A3029 RMK A01 T00331038  RH  059%=      5-min Rain = 0
KDO1 200003Z 34007KT 03/M04 A3029 RMK A01 T00331038  RH  059%=      5-min Rain = 0
KDO1 200004Z 34006KT 03/M04 A3029 RMK A01 T00331038  RH  060%=      5-min Rain = 0
KDO1 200005Z 34006KT 03/M04 A3029 RMK A01 T00321038  RH  060%=      5-min Rain = 0
KDO1 200006Z 34006KT 03/M04 A3029 RMK A01 T00311039  RH  060%=      5-min Rain = 0
KDO1 200007Z 34007KT 03/M04 A3029 RMK A01 T00321038  RH  060%=      5-min Rain = 0
KDO1 200008Z 34006KT 03/M04 A3029 RMK A01 T00311038  RH  060%=      5-min Rain = 0
KDO1 200009Z 34007KT 03/M04 A3029 RMK A01 T00311038  RH  061%=      5-min Rain = 0
KDO1 200010Z 34006KT 03/M04 A3029 RMK A01 T00301039  RH  061%=      5-min Rain = 0
KDO1 200011Z 34007KT 03/M04 A3029 RMK A01 T00301038  RH  061%=      5-min Rain = 0
KDO1 200012Z 35007KT 03/M04 A3029 RMK A01 T00301038  RH  061%=      5-min Rain = 0
KDO1 200013Z 35007KT 03/M04 A3029 RMK A01 T00301038  RH  061%=      5-min Rain = 0
KDO1 200014Z 35007KT 03/M04 A3029 RMK A01 T00291039  RH  061%=      5-min Rain = 0
KDO1 200015Z 35007KT 03/M04 A3029 RMK A01 T00281039  RH  061%=      5-min Rain = 0
KDO1 200016Z 35007KT 03/M04 A3029 RMK A01 T00271039  RH  062%=      5-min Rain = 0
KDO1 200017Z 34007KT 03/M04 A3029 RMK A01 T00271039  RH  062%=      5-min Rain = 0
KDO1 200018Z 34007KT 03/M04 A3029 RMK A01 T00261039  RH  062%=      5-min Rain = 0
KDO1 200019Z 34007KT 03/M04 A3029 RMK A01 T00251039  RH  062%=      5-min Rain = 0
KDO1 200020Z 34007KT 03/M04 A303 RMK A01 T00251039  RH  063%=      5-min Rain = 0
KDO1 200021Z 34006KT 03/M04 A303 RMK A01 T00251039  RH  063%=      5-min Rain = 0
KDO1 200022Z 34007KT 02/M04 A303 RMK A01 T00241039  RH  063%=      5-min Rain = 0
KDO1 200023Z 34006KT 02/M04 A303 RMK A01 T00241039  RH  063%=      5-min Rain = 0
KDO1 200024Z 33007KT 02/M04 A303 RMK A01 T00231040  RH  063%=      5-min Rain = 0
KDO1 200025Z 33007KT 02/M04 A303 RMK A01 T00221040  RH  064%=      5-min Rain = 0
KDO1 200026Z 33007KT 02/M04 A303 RMK A01 T00221039  RH  064%=      5-min Rain = 0
KDO1 200027Z 33007KT 02/M04 A303 RMK A01 T00231038  RH  064%=      5-min Rain = 0
KDO1 200028Z 33007KT 02/M04 A303 RMK A01 T00221038  RH  064%=      5-min Rain = 0
KDO1 200029Z 34007KT 02/M04 A303 RMK A01 T00221038  RH  064%=      5-min Rain = 0
KDO1 200030Z 34007KT 02/M04 A303 RMK A01 T00231037  RH  064%=      5-min Rain = 0
KDO1 200031Z 34007KT 02/M04 A303 RMK A01 T00231038  RH  064%=      5-min Rain = 0
KDO1 200032Z 34007KT 02/M04 A303 RMK A01 T00231037  RH  064%=      5-min Rain = 0
KDO1 200033Z 35007KT 02/M04 A303 RMK A01 T00231037  RH  064%=      5-min Rain = 0
KDO1 200034Z 35007KT 02/M04 A303 RMK A01 T00231038  RH  064%=      5-min Rain = 0
KDO1 200035Z 35008KT 02/M04 A303 RMK A01 T00231037  RH  064%=      5-min Rain = 0
KDO1 200036Z 36008KT 02/M04 A303 RMK A01 T00231038  RH  064%=      5-min Rain = 0
KDO1 200037Z 35008KT 02/M04 A303 RMK A01 T00231038  RH  064%=      5-min Rain = 0
KDO1 200038Z 35008KT 02/M04 A303 RMK A01 T00221038  RH  064%=      5-min Rain = 0
KDO1 200039Z 35008KT 02/M04 A303 RMK A01 T00231037  RH  065%=      5-min Rain = 0
KDO1 200040Z 35008KT 02/M04 A303 RMK A01 T00221038  RH  065%=      5-min Rain = 0
KDO1 200041Z 35008KT 02/M04 A303 RMK A01 T00221038  RH  065%=      5-min Rain = 0
KDO1 200042Z 35008KT 02/M04 A303 RMK A01 T00211038  RH  065%=      5-min Rain = 0
KDO1 200043Z 35007KT 02/M04 A303 RMK A01 T00211038  RH  065%=      5-min Rain = 0
KDO1 200044Z 35008KT 02/M04 A303 RMK A01 T00201038  RH  065%=      5-min Rain = 0
KDO1 200045Z 35007KT 02/M04 A303 RMK A01 T00201039  RH  065%=      5-min Rain = 0
KDO1 200046Z 35007KT 02/M04 A303 RMK A01 T00191039  RH  066%=      5-min Rain = 0
KDO1 200047Z 35007KT 02/M04 A3029 RMK A01 T00181039  RH  066%=      5-min Rain = 0
KDO1 200048Z 35007KT 02/M04 A3029 RMK A01 T00181039  RH  066%=      5-min Rain = 0
KDO1 200049Z 35008KT 02/M04 A3029 RMK A01 T00171039  RH  066%=      5-min Rain = 0
KDO1 200050Z 35008KT 02/M04 A303 RMK A01 T00161039  RH  066%=      5-min Rain = 0
KDO1 200051Z 35008KT 02/M04 A303 RMK A01 T00161040  RH  067%=      5-min Rain = 0
KDO1 200052Z 35007KT 02/M04 A303 RMK A01 T00151040  RH  067%=      5-min Rain = 0
KDO1 200053Z 35007KT 01/M04 A303 RMK A01 T00141040  RH  067%=      5-min Rain = 0
KDO1 200054Z 35007KT 01/M04 A303 RMK A01 T00141040  RH  068%=      5-min Rain = 0
KDO1 200055Z 35006KT 01/M04 A3029 RMK A01 T00131040  RH  068%=      5-min Rain = 0
KDO1 200056Z 35006KT 01/M04 A3029 RMK A01 T00131040  RH  068%=      5-min Rain = 0
KDO1 200057Z 36006KT 01/M04 A3029 RMK A01 T00131040  RH  068%=      5-min Rain = 0
KDO1 200058Z 36006KT 01/M04 A3029 RMK A01 T00121040  RH  068%=      5-min Rain = 0
KDO1 200059Z 36006KT 01/M04 A3029 RMK A01 T00121040  RH  068%=      5-min Rain = 0
KDO1 200100Z 36007KT 01/M04 A303 RMK A01 T00111040  RH  069%=      5-min Rain = 0
KDO1 200101Z 36006KT 01/M04 A303 RMK A01 T00111040  RH  069%=      5-min Rain = 0
KDO1 200102Z 36007KT 01/M04 A303 RMK A01 T00111040  RH  069%=      5-min Rain = 0
KDO1 200103Z 35007KT 01/M04 A303 RMK A01 T00111040  RH  069%=      5-min Rain = 0
KDO1 200104Z 35007KT 01/M04 A303 RMK A01 T00101040  RH  069%=      5-min Rain = 0
KDO1 200105Z 35006KT 01/M04 A303 RMK A01 T00101041  RH  069%=      5-min Rain = 0
KDO1 200106Z 35006KT 01/M04 A3031 RMK A01 T00091041  RH  069%=      5-min Rain = 0
KDO1 200107Z 35006KT 01/M04 A3031 RMK A01 T00091040  RH  070%=      5-min Rain = 0
KDO1 200108Z 36006KT 01/M04 A3031 RMK A01 T00091040  RH  070%=      5-min Rain = 0
KDO1 200109Z 35006KT 01/M04 A303 RMK A01 T00081040  RH  070%=      5-min Rain = 0
KDO1 200110Z 00006KT 01/M04 A303 RMK A01 T00081040  RH  070%=      5-min Rain = 0
KDO1 200111Z 36006KT 01/M04 A303 RMK A01 T00081041  RH  070%=      5-min Rain = 0
KDO1 200112Z 36005KT 01/M04 A303 RMK A01 T00081041  RH  070%=      5-min Rain = 0
KDO1 200113Z 00005KT 01/M04 A303 RMK A01 T00071041  RH  070%=      5-min Rain = 0
KDO1 200114Z 00006KT 01/M04 A303 RMK A01 T00071041  RH  070%=      5-min Rain = 0
KDO1 200115Z 01005KT 01/M04 A303 RMK A01 T00061041  RH  070%=      5-min Rain = 0
KDO1 200116Z 00005KT 01/M04 A303 RMK A01 T00061041  RH  071%=      5-min Rain = 0
KDO1 200117Z 00005KT 01/M04 A3029 RMK A01 T00051042  RH  071%=      5-min Rain = 0
KDO1 200118Z 36005KT 01/M04 A3029 RMK A01 T00051042  RH  071%=      5-min Rain = 0
KDO1 200119Z 00005KT 00/M04 A3029 RMK A01 T00041042  RH  071%=      5-min Rain = 0
KDO1 200120Z 36005KT 00/M04 A3029 RMK A01 T00031042  RH  072%=      5-min Rain = 0
KDO1 200121Z 00004KT 00/M04 A3029 RMK A01 T00021043  RH  072%=      5-min Rain = 0
KDO1 200122Z 36005KT 00/M04 A3029 RMK A01 T00021042  RH  072%=      5-min Rain = 0
KDO1 200123Z 36004KT 00/M04 A3029 RMK A01 T00011042  RH  072%=      5-min Rain = 0
KDO1 200124Z 35004KT 00/M04 A3029 RMK A01 T00011042  RH  073%=      5-min Rain = 0
KDO1 200125Z 35004KT 00/04 A3029 RMK A01 T00000-43  RH  073%=      5-min Rain = 0
KDO1 200126Z 36003KT 00/04 A3029 RMK A01 T00-00-43  RH  073%=      5-min Rain = 0
KDO1 200127Z 01003KT M00/M04 A3029 RMK A01 T10011043  RH  073%=      5-min Rain = 0
KDO1 200128Z 01003KT M00/M04 A3029 RMK A01 T10011043  RH  073%=      5-min Rain = 0
KDO1 200129Z 01004KT M00/M04 A3029 RMK A01 T10021044  RH  073%=      5-min Rain = 0
KDO1 200130Z 02004KT M00/M04 A3029 RMK A01 T10021044  RH  074%=      5-min Rain = 0
KDO1 200131Z 04003KT M00/M04 A3029 RMK A01 T10021044  RH  074%=      5-min Rain = 0
KDO1 200132Z 06003KT M00/M05 A3029 RMK A01 T10041045  RH  074%=      5-min Rain = 0
KDO1 200133Z 09003KT M01/M05 A3029 RMK A01 T10051046  RH  074%=      5-min Rain = 0
KDO1 200134Z 09003KT M01/M05 A3029 RMK A01 T10071047  RH  074%=      5-min Rain = 0
KDO1 200135Z 09002KT M01/M05 A3029 RMK A01 T10091049  RH  075%=      5-min Rain = 0
KDO1 200136Z 10002KT M01/M05 A3029 RMK A01 T10111049  RH  075%=      5-min Rain = 0
KDO1 200137Z 10002KT M01/M05 A3029 RMK A01 T10121050  RH  076%=      5-min Rain = 0
KDO1 200138Z 09002KT M01/M05 A3029 RMK A01 T10141050  RH  076%=      5-min Rain = 0
KDO1 200139Z 09001KT M01/M05 A3029 RMK A01 T10141050  RH  077%=      5-min Rain = 0
KDO1 200140Z 07001KT M02/M05 A3029 RMK A01 T10151050  RH  077%=      5-min Rain = 0
KDO1 200141Z 03001KT M02/M05 A3029 RMK A01 T10151049  RH  077%=      5-min Rain = 0
KDO1 200142Z 01001KT M02/M05 A3029 RMK A01 T10151049  RH  078%=      5-min Rain = 0
KDO1 200143Z 34001KT M02/M05 A3029 RMK A01 T10151049  RH  078%=      5-min Rain = 0
KDO1 200144Z 34001KT M02/M05 A3029 RMK A01 T10151049  RH  078%=      5-min Rain = 0
KDO1 200145Z 35002KT M02/M05 A3029 RMK A01 T10161049  RH  078%=      5-min Rain = 0
KDO1 200146Z 35002KT M02/M05 A3028 RMK A01 T10161049  RH  078%=      5-min Rain = 0
KDO1 200147Z 35002KT M02/M05 A3028 RMK A01 T10161048  RH  079%=      5-min Rain = 0
KDO1 200148Z 36003KT M02/M05 A3028 RMK A01 T10151047  RH  079%=      5-min Rain = 0
KDO1 200149Z 00003KT M01/M05 A3028 RMK A01 T10141045  RH  079%=      5-min Rain = 0
KDO1 200150Z 00004KT M01/M04 A3028 RMK A01 T10111043  RH  079%=      5-min Rain = 0
KDO1 200151Z 01003KT M01/M04 A3028 RMK A01 T10091043  RH  078%=      5-min Rain = 0
KDO1 200152Z 01004KT M01/M04 A3028 RMK A01 T10071042  RH  077%=      5-min Rain = 0
KDO1 200153Z 01004KT M01/M04 A3028 RMK A01 T10061042  RH  076%=      5-min Rain = 0
KDO1 200154Z 01004KT M01/M04 A3028 RMK A01 T10061043  RH  076%=      5-min Rain = 0
KDO1 200155Z 02004KT M01/M04 A3029 RMK A01 T10051043  RH  076%=      5-min Rain = 0
KDO1 200156Z 03004KT M01/M04 A3029 RMK A01 T10051043  RH  076%=      5-min Rain = 0
KDO1 200157Z 03004KT M01/M04 A3029 RMK A01 T10051043  RH  075%=      5-min Rain = 0
KDO1 200158Z 04004KT M01/M05 A3029 RMK A01 T10071045  RH  075%=      5-min Rain = 0
KDO1 200159Z 05003KT M01/M05 A3029 RMK A01 T10081045  RH  076%=      5-min Rain = 0
KDO1 200200Z 06003KT M01/M05 A3029 RMK A01 T10091045  RH  076%=      5-min Rain = 0
KDO1 200201Z 06003KT M01/M05 A3029 RMK A01 T10091045  RH  077%=      5-min Rain = 0
KDO1 200202Z 06003KT M01/M05 A3029 RMK A01 T10091045  RH  077%=      5-min Rain = 0
KDO1 200203Z 05002KT M01/M05 A3029 RMK A01 T10101045  RH  077%=      5-min Rain = 0
KDO1 200204Z 05002KT M01/M05 A3029 RMK A01 T10101045  RH  077%=      5-min Rain = 0
KDO1 200205Z 04002KT M01/M05 A3029 RMK A01 T10111045  RH  078%=      5-min Rain = 0
KDO1 200206Z 03002KT M01/M05 A3029 RMK A01 T10111045  RH  078%=      5-min Rain = 0
KDO1 200207Z 03003KT M01/M05 A3029 RMK A01 T10111045  RH  078%=      5-min Rain = 0
KDO1 200208Z 02004KT M01/M05 A3029 RMK A01 T10111045  RH  078%=      5-min Rain = 0
KDO1 200209Z 02004KT M01/M05 A3029 RMK A01 T10111045  RH  078%=      5-min Rain = 0
KDO1 200210Z 02004KT M01/M04 A3029 RMK A01 T10101044  RH  078%=      5-min Rain = 0
KDO1 200211Z 02004KT M01/M04 A3029 RMK A01 T10101044  RH  078%=      5-min Rain = 0
KDO1 200212Z 02004KT M01/M04 A3029 RMK A01 T10091043  RH  078%=      5-min Rain = 0
KDO1 200213Z 02005KT M01/M04 A3029 RMK A01 T10091043  RH  077%=      5-min Rain = 0
KDO1 200214Z 02005KT M01/M04 A3029 RMK A01 T10091043  RH  077%=      5-min Rain = 0
KDO1 200215Z 01004KT M01/M04 A3029 RMK A01 T10091043  RH  078%=      5-min Rain = 0
KDO1 200216Z 01004KT M01/M04 A3029 RMK A01 T10091043  RH  078%=      5-min Rain = 0
KDO1 200217Z 00004KT M01/M04 A3029 RMK A01 T10091042  RH  078%=      5-min Rain = 0
KDO1 200218Z 01004KT M01/M04 A3029 RMK A01 T10091042  RH  078%=      5-min Rain = 0
KDO1 200219Z 00003KT M01/M04 A3029 RMK A01 T10101043  RH  078%=      5-min Rain = 0
KDO1 200220Z 01003KT M01/M04 A3029 RMK A01 T10111044  RH  079%=      5-min Rain = 0
KDO1 200221Z 01003KT M01/M04 A3029 RMK A01 T10121044  RH  079%=      5-min Rain = 0
KDO1 200222Z 02003KT M01/M04 A3029 RMK A01 T10131044  RH  079%=      5-min Rain = 0
KDO1 200223Z 03003KT M01/M04 A3029 RMK A01 T10131044  RH  079%=      5-min Rain = 0
KDO1 200224Z 04002KT M01/M04 A3029 RMK A01 T10131044  RH  080%=      5-min Rain = 0
KDO1 200225Z 08003KT M01/M04 A3029 RMK A01 T10131044  RH  080%=      5-min Rain = 0
KDO1 200226Z 12004KT M01/M04 A3029 RMK A01 T10131044  RH  079%=      5-min Rain = 0
KDO1 200227Z 12003KT M02/M05 A303 RMK A01 T10151046  RH  079%=      5-min Rain = 0
KDO1 200228Z 13003KT M02/M05 A303 RMK A01 T10171046  RH  080%=      5-min Rain = 0
KDO1 200229Z 15004KT M02/M05 A303 RMK A01 T10181047  RH  081%=      5-min Rain = 0
KDO1 200230Z 18004KT M02/M05 A303 RMK A01 T10181047  RH  081%=      5-min Rain = 0
KDO1 200231Z 18004KT M02/M05 A303 RMK A01 T10191046  RH  082%=      5-min Rain = 0
KDO1 200232Z 20005KT M02/M05 A303 RMK A01 T10201046  RH  082%=      5-min Rain = 0
KDO1 200233Z 21005KT M02/M05 A3031 RMK A01 T10201045  RH  083%=      5-min Rain = 0
KDO1 200234Z 22005KT M02/M04 A3031 RMK A01 T10201044  RH  083%=      5-min Rain = 0
KDO1 200235Z 23005KT M02/M05 A3031 RMK A01 T10201045  RH  084%=      5-min Rain = 0
KDO1 200236Z 23005KT M02/M04 A3031 RMK A01 T10201044  RH  084%=      5-min Rain = 0
KDO1 200237Z 23004KT M02/M04 A3031 RMK A01 T10211044  RH  084%=      5-min Rain = 0
KDO1 200238Z 23004KT M02/M04 A3031 RMK A01 T10211044  RH  084%=      5-min Rain = 0
KDO1 200239Z 24004KT M02/M04 A3031 RMK A01 T10201043  RH  084%=      5-min Rain = 0
KDO1 200240Z 25004KT M02/M04 A3031 RMK A01 T10201044  RH  084%=      5-min Rain = 0
KDO1 200241Z 26003KT M02/M04 A3031 RMK A01 T10201044  RH  084%=      5-min Rain = 0
KDO1 200242Z 26003KT M02/M04 A3031 RMK A01 T10191043  RH  084%=      5-min Rain = 0
KDO1 200243Z 26003KT M02/M04 A3031 RMK A01 T10191042  RH  084%=      5-min Rain = 0
KDO1 200244Z 26002KT M02/M04 A3031 RMK A01 T10191043  RH  084%=      5-min Rain = 0
KDO1 200245Z 26002KT M02/M04 A3031 RMK A01 T10191042  RH  084%=      5-min Rain = 0
KDO1 200246Z 27002KT M02/M04 A3031 RMK A01 T10181042  RH  084%=      5-min Rain = 0
KDO1 200247Z 27003KT M02/M04 A3031 RMK A01 T10171041  RH  083%=      5-min Rain = 0
KDO1 200248Z 27003KT M02/M04 A3031 RMK A01 T10161042  RH  082%=      5-min Rain = 0
KDO1 200249Z 27003KT M02/M04 A3031 RMK A01 T10161043  RH  082%=      5-min Rain = 0
KDO1 200250Z 27003KT M02/M04 A3031 RMK A01 T10161042  RH  082%=      5-min Rain = 0
KDO1 200251Z 27002KT M02/M04 A3031 RMK A01 T10161042  RH  083%=      5-min Rain = 0
KDO1 200252Z 26002KT M01/M04 A3031 RMK A01 T10141040  RH  082%=      5-min Rain = 0
KDO1 200253Z 25002KT M01/M04 A3031 RMK A01 T10131040  RH  082%=      5-min Rain = 0
KDO1 200254Z 24001KT M01/M04 A303 RMK A01 T10121040  RH  081%=      5-min Rain = 0
KDO1 200255Z 22001KT M01/M04 A303 RMK A01 T10111040  RH  081%=      5-min Rain = 0
KDO1 200256Z 21001KT M01/M04 A303 RMK A01 T10111040  RH  080%=      5-min Rain = 0
KDO1 200257Z 21001KT M01/M04 A303 RMK A01 T10121043  RH  080%=      5-min Rain = 0
KDO1 200258Z 21001KT M02/M04 A303 RMK A01 T10151044  RH  081%=      5-min Rain = 0
KDO1 200259Z 19001KT M02/M04 A3031 RMK A01 T10161044  RH  081%=      5-min Rain = 0
KDO1 200300Z 18001KT M02/M04 A3031 RMK A01 T10171044  RH  082%=      5-min Rain = 0
KDO1 200301Z 17001KT M02/M04 A3031 RMK A01 T10181043  RH  083%=      5-min Rain = 0
KDO1 200302Z 17001KT M02/M04 A3031 RMK A01 T10171043  RH  083%=      5-min Rain = 0
KDO1 200303Z 16001KT M02/M04 A3031 RMK A01 T10171043  RH  083%=      5-min Rain = 0
KDO1 200304Z 14001KT M02/M04 A3031 RMK A01 T10171042  RH  083%=      5-min Rain = 0
KDO1 200305Z 13001KT M02/M04 A3031 RMK A01 T10161042  RH  082%=      5-min Rain = 0
KDO1 200306Z 11001KT M02/M04 A3031 RMK A01 T10161042  RH  082%=      5-min Rain = 0
KDO1 200307Z 10001KT M02/M04 A3031 RMK A01 T10161043  RH  082%=      5-min Rain = 0
KDO1 200308Z 09001KT M02/M04 A3031 RMK A01 T10151042  RH  082%=      5-min Rain = 0
KDO1 200309Z 09000KT M02/M04 A3031 RMK A01 T10151042  RH  082%=      5-min Rain = 0
KDO1 200310Z 00000KT M02/M04 A3031 RMK A01 T10151042  RH  082%=      5-min Rain = 0
KDO1 200311Z 04000KT M02/M04 A3031 RMK A01 T10151042  RH  082%=      5-min Rain = 0
KDO1 200312Z 04001KT M01/M04 A3031 RMK A01 T10141042  RH  081%=      5-min Rain = 0
KDO1 200313Z 04001KT M01/M04 A3031 RMK A01 T10131041  RH  081%=      5-min Rain = 0
KDO1 200314Z 03002KT M01/M04 A3031 RMK A01 T10121040  RH  081%=      5-min Rain = 0
KDO1 200315Z 01002KT M01/M04 A3031 RMK A01 T10111040  RH  080%=      5-min Rain = 0
KDO1 200316Z 01002KT M01/M04 A3031 RMK A01 T10101040  RH  080%=      5-min Rain = 0
KDO1 200317Z 01002KT M01/M04 A3031 RMK A01 T10111041  RH  080%=      5-min Rain = 0
KDO1 200318Z 01002KT M01/M04 A3031 RMK A01 T10131042  RH  081%=      5-min Rain = 0
KDO1 200319Z 02002KT M02/M04 A3031 RMK A01 T10161043  RH  082%=      5-min Rain = 0
KDO1 200320Z 03002KT M02/M04 A3031 RMK A01 T10181043  RH  083%=      5-min Rain = 0
KDO1 200321Z 03002KT M02/M04 A3031 RMK A01 T10191043  RH  084%=      5-min Rain = 0
KDO1 200322Z 04002KT M02/M04 A3031 RMK A01 T10201043  RH  084%=      5-min Rain = 0
KDO1 200323Z 04002KT M02/M04 A3031 RMK A01 T10211043  RH  085%=      5-min Rain = 0
KDO1 200324Z 05002KT M02/M04 A3031 RMK A01 T10211043  RH  085%=      5-min Rain = 0
KDO1 200325Z 06002KT M02/M04 A3031 RMK A01 T10211043  RH  085%=      5-min Rain = 0
KDO1 200326Z 06003KT M02/M04 A3031 RMK A01 T10211043  RH  085%=      5-min Rain = 0
KDO1 200327Z 07003KT M02/M04 A3031 RMK A01 T10211043  RH  085%=      5-min Rain = 0
KDO1 200328Z 07003KT M02/M04 A3031 RMK A01 T10201042  RH  084%=      5-min Rain = 0
KDO1 200329Z 06003KT M02/M04 A3031 RMK A01 T10181042  RH  083%=      5-min Rain = 0
KDO1 200330Z 07003KT M02/M04 A3031 RMK A01 T10181044  RH  083%=      5-min Rain = 0
KDO1 200331Z 06003KT M02/M04 A3031 RMK A01 T10191044  RH  083%=      5-min Rain = 0
KDO1 200332Z 06004KT M02/M05 A3031 RMK A01 T10201045  RH  083%=      5-min Rain = 0
KDO1 200333Z 06004KT M02/M05 A3031 RMK A01 T10211045  RH  084%=      5-min Rain = 0
KDO1 200334Z 06004KT M02/M05 A3031 RMK A01 T10221045  RH  084%=      5-min Rain = 0
KDO1 200335Z 06004KT M02/M05 A3031 RMK A01 T10231045  RH  085%=      5-min Rain = 0
KDO1 200336Z 06005KT M02/M05 A3031 RMK A01 T10241046  RH  085%=      5-min Rain = 0
KDO1 200337Z 06005KT M03/M05 A3031 RMK A01 T10251046  RH  085%=      5-min Rain = 0
KDO1 200338Z 06005KT M03/M05 A3031 RMK A01 T10251046  RH  086%=      5-min Rain = 0
KDO1 200339Z 06006KT M03/M05 A3031 RMK A01 T10261046  RH  086%=      5-min Rain = 0
KDO1 200340Z 05006KT M03/M05 A3031 RMK A01 T10271047  RH  086%=      5-min Rain = 0
KDO1 200341Z 05006KT M03/M05 A3031 RMK A01 T10271047  RH  086%=      5-min Rain = 0
KDO1 200342Z 04006KT M03/M05 A3031 RMK A01 T10271047  RH  086%=      5-min Rain = 0
KDO1 200343Z 04006KT M03/M05 A3031 RMK A01 T10261047  RH  086%=      5-min Rain = 0
KDO1 200344Z 03005KT M03/M05 A3031 RMK A01 T10261048  RH  085%=      5-min Rain = 0
KDO1 200345Z 03005KT M03/M05 A3031 RMK A01 T10251048  RH  084%=      5-min Rain = 0
KDO1 200346Z 03005KT M02/M05 A3031 RMK A01 T10241049  RH  083%=      5-min Rain = 0
KDO1 200347Z 03004KT M02/M05 A3031 RMK A01 T10241050  RH  082%=      5-min Rain = 0
KDO1 200348Z 03004KT M02/M05 A3031 RMK A01 T10231050  RH  082%=      5-min Rain = 0
KDO1 200349Z 04005KT M02/M05 A3031 RMK A01 T10241050  RH  082%=      5-min Rain = 0
KDO1 200350Z 05005KT M03/M05 A3031 RMK A01 T10251050  RH  083%=      5-min Rain = 0
KDO1 200351Z 05005KT M03/M05 A3031 RMK A01 T10251052  RH  082%=      5-min Rain = 0
KDO1 200352Z 05005KT M02/M05 A303 RMK A01 T10241052  RH  081%=      5-min Rain = 0
KDO1 200353Z 05005KT M02/M05 A303 RMK A01 T10241052  RH  081%=      5-min Rain = 0
KDO1 200354Z 05005KT M03/M05 A303 RMK A01 T10251052  RH  081%=      5-min Rain = 0
KDO1 200355Z 05005KT M03/M05 A303 RMK A01 T10251053  RH  081%=      5-min Rain = 0
KDO1 200356Z 05005KT M03/M05 A303 RMK A01 T10261053  RH  082%=      5-min Rain = 0
KDO1 200357Z 05005KT M03/M05 A303 RMK A01 T10261053  RH  082%=      5-min Rain = 0
KDO1 200358Z 05005KT M03/M05 A303 RMK A01 T10261054  RH  081%=      5-min Rain = 0
KDO1 200359Z 05005KT M03/M05 A303 RMK A01 T10261054  RH  081%=      5-min Rain = 0
KDO1 200400Z 05004KT M03/M06 A303 RMK A01 T10261055  RH  081%=      5-min Rain = 0
KDO1 200401Z 05004KT M03/M06 A303 RMK A01 T10261055  RH  080%=      5-min Rain = 0
KDO1 200402Z 05003KT M03/M06 A303 RMK A01 T10251055  RH  080%=      5-min Rain = 0
KDO1 200403Z 04003KT M02/M05 A303 RMK A01 T10241054  RH  080%=      5-min Rain = 0
KDO1 200404Z 04002KT M03/M06 A303 RMK A01 T10251055  RH  080%=      5-min Rain = 0
KDO1 200405Z 04003KT M03/M06 A303 RMK A01 T10251055  RH  079%=      5-min Rain = 0
KDO1 200406Z 04004KT M03/M06 A303 RMK A01 T10251056  RH  079%=      5-min Rain = 0
KDO1 200407Z 05006KT M03/M06 A303 RMK A01 T10251056  RH  079%=      5-min Rain = 0
KDO1 200408Z 05006KT M02/M06 A3029 RMK A01 T10241057  RH  078%=      5-min Rain = 0
KDO1 200409Z 05007KT M02/M06 A3029 RMK A01 T10241058  RH  077%=      5-min Rain = 0
KDO1 200410Z 05007KT M02/M06 A3029 RMK A01 T10231057  RH  077%=      5-min Rain = 0
KDO1 200411Z 05006KT M02/M06 A3029 RMK A01 T10231057  RH  077%=      5-min Rain = 0
KDO1 200412Z 04005KT M02/M06 A3029 RMK A01 T10231057  RH  077%=      5-min Rain = 0
KDO1 200413Z 03004KT M02/M06 A3029 RMK A01 T10231058  RH  077%=      5-min Rain = 0
KDO1 200414Z 03003KT M02/M06 A3029 RMK A01 T10231058  RH  077%=      5-min Rain = 0
KDO1 200415Z 03003KT M02/M06 A3029 RMK A01 T10221059  RH  076%=      5-min Rain = 0
KDO1 200416Z 03004KT M02/M06 A3029 RMK A01 T10221060  RH  076%=      5-min Rain = 0
KDO1 200417Z 04004KT M02/M06 A3029 RMK A01 T10211060  RH  075%=      5-min Rain = 0
KDO1 200418Z 04004KT M02/M06 A3029 RMK A01 T10211060  RH  074%=      5-min Rain = 0
KDO1 200419Z 04005KT M02/M06 A3029 RMK A01 T10201061  RH  074%=      5-min Rain = 0
KDO1 200420Z 04005KT M02/M06 A3029 RMK A01 T10201061  RH  074%=      5-min Rain = 0
KDO1 200421Z 04005KT M02/M06 A3029 RMK A01 T10201061  RH  074%=      5-min Rain = 0
KDO1 200422Z 04005KT M02/M06 A3029 RMK A01 T10211060  RH  074%=      5-min Rain = 0
KDO1 200423Z 03004KT M02/M06 A303 RMK A01 T10221060  RH  075%=      5-min Rain = 0
KDO1 200424Z 03004KT M02/M06 A303 RMK A01 T10221060  RH  075%=      5-min Rain = 0
KDO1 200425Z 03004KT M02/M06 A303 RMK A01 T10221060  RH  075%=      5-min Rain = 0
KDO1 200426Z 02003KT M02/M06 A303 RMK A01 T10221060  RH  075%=      5-min Rain = 0
KDO1 200427Z 02003KT M02/M06 A303 RMK A01 T10221060  RH  075%=      5-min Rain = 0
KDO1 200428Z 02003KT M02/M06 A303 RMK A01 T10231059  RH  076%=      5-min Rain = 0
KDO1 200429Z 03004KT M02/M06 A303 RMK A01 T10241058  RH  077%=      5-min Rain = 0
KDO1 200430Z 04005KT M03/M06 A303 RMK A01 T10251059  RH  077%=      5-min Rain = 0
KDO1 200431Z 04005KT M02/M06 A303 RMK A01 T10241060  RH  077%=      5-min Rain = 0
KDO1 200432Z 04005KT M02/M06 A3029 RMK A01 T10241061  RH  076%=      5-min Rain = 0
KDO1 200433Z 04006KT M02/M06 A3029 RMK A01 T10241061  RH  076%=      5-min Rain = 0
KDO1 200434Z 04006KT M02/M06 A3029 RMK A01 T10241061  RH  076%=      5-min Rain = 0
KDO1 200435Z 04005KT M02/M06 A3029 RMK A01 T10231061  RH  076%=      5-min Rain = 0
KDO1 200436Z 04005KT M02/M06 A3029 RMK A01 T10231061  RH  075%=      5-min Rain = 0
KDO1 200437Z 04004KT M02/M06 A303 RMK A01 T10241062  RH  075%=      5-min Rain = 0
KDO1 200438Z 04004KT M02/M06 A303 RMK A01 T10241062  RH  075%=      5-min Rain = 0
KDO1 200439Z 04004KT M02/M06 A303 RMK A01 T10231062  RH  075%=      5-min Rain = 0
KDO1 200440Z 04003KT M02/M06 A303 RMK A01 T10231062  RH  075%=      5-min Rain = 0
KDO1 200441Z 04003KT M02/M06 A303 RMK A01 T10231062  RH  075%=      5-min Rain = 0
KDO1 200442Z 04002KT M02/M06 A303 RMK A01 T10231062  RH  074%=      5-min Rain = 0
KDO1 200443Z 03002KT M02/M06 A303 RMK A01 T10231062  RH  074%=      5-min Rain = 0
KDO1 200444Z 04002KT M02/M06 A303 RMK A01 T10231061  RH  075%=      5-min Rain = 0
KDO1 200445Z 04003KT M02/M06 A303 RMK A01 T10241061  RH  076%=      5-min Rain = 0
KDO1 200446Z 04003KT M03/M06 A303 RMK A01 T10251061  RH  076%=      5-min Rain = 0
KDO1 200447Z 04003KT M03/M06 A303 RMK A01 T10251061  RH  077%=      5-min Rain = 0
KDO1 200448Z 04003KT M03/M06 A303 RMK A01 T10261061  RH  077%=      5-min Rain = 0
KDO1 200449Z 03004KT M03/M06 A303 RMK A01 T10261062  RH  076%=      5-min Rain = 0
KDO1 200450Z 03004KT M03/M06 A3031 RMK A01 T10261063  RH  076%=      5-min Rain = 0
KDO1 200451Z 03005KT M03/M06 A3031 RMK A01 T10251063  RH  075%=      5-min Rain = 0
KDO1 200452Z 04005KT M03/M06 A303 RMK A01 T10251063  RH  075%=      5-min Rain = 0
KDO1 200453Z 04005KT M03/M06 A303 RMK A01 T10251063  RH  075%=      5-min Rain = 0
KDO1 200454Z 05005KT M03/M06 A303 RMK A01 T10251063  RH  076%=      5-min Rain = 0
KDO1 200455Z 05005KT M03/M06 A303 RMK A01 T10251062  RH  076%=      5-min Rain = 0
KDO1 200456Z 05004KT M03/M06 A303 RMK A01 T10261063  RH  076%=      5-min Rain = 0
KDO1 200457Z 05004KT M03/M06 A303 RMK A01 T10261063  RH  076%=      5-min Rain = 0
KDO1 200458Z 04003KT M03/M06 A303 RMK A01 T10271063  RH  076%=      5-min Rain = 0
KDO1 200459Z 03003KT M03/M06 A303 RMK A01 T10271063  RH  076%=      5-min Rain = 0
KDO1 200500Z 03003KT M03/M06 A303 RMK A01 T10271063  RH  077%=      5-min Rain = 0
KDO1 200501Z 02002KT M03/M06 A303 RMK A01 T10281063  RH  077%=      5-min Rain = 0
KDO1 200502Z 02002KT M03/M06 A303 RMK A01 T10281063  RH  077%=      5-min Rain = 0
KDO1 200503Z 04002KT M03/M06 A303 RMK A01 T10281063  RH  077%=      5-min Rain = 0
KDO1 200504Z 03003KT M03/M06 A303 RMK A01 T10281063  RH  077%=      5-min Rain = 0
KDO1 200505Z 04004KT M03/M06 A303 RMK A01 T10281062  RH  077%=      5-min Rain = 0
KDO1 200506Z 04005KT M03/M06 A303 RMK A01 T10281063  RH  077%=      5-min Rain = 0
KDO1 200507Z 04005KT M03/M06 A303 RMK A01 T10281063  RH  077%=      5-min Rain = 0
KDO1 200508Z 04006KT M03/M06 A303 RMK A01 T10281064  RH  076%=      5-min Rain = 0
KDO1 200509Z 04006KT M03/M06 A303 RMK A01 T10281064  RH  077%=      5-min Rain = 0
KDO1 200510Z 04006KT M03/M06 A303 RMK A01 T10291063  RH  077%=      5-min Rain = 0
KDO1 200511Z 04005KT M03/M06 A303 RMK A01 T10291064  RH  077%=      5-min Rain = 0
KDO1 200512Z 04004KT M03/M06 A303 RMK A01 T10291063  RH  077%=      5-min Rain = 0
KDO1 200513Z 03003KT M03/M06 A303 RMK A01 T10291064  RH  077%=      5-min Rain = 0
KDO1 200514Z 01002KT M03/M06 A3031 RMK A01 T10291064  RH  077%=      5-min Rain = 0
KDO1 200515Z 28001KT M03/M06 A3031 RMK A01 T10291064  RH  077%=      5-min Rain = 0
KDO1 200516Z 25002KT M03/M06 A3031 RMK A01 T10291064  RH  077%=      5-min Rain = 0
KDO1 200517Z 25003KT M03/M06 A3032 RMK A01 T10311063  RH  078%=      5-min Rain = 0
KDO1 200518Z 25002KT M03/M06 A3032 RMK A01 T10321064  RH  079%=      5-min Rain = 0
KDO1 200519Z 25002KT M03/M06 A3032 RMK A01 T10321064  RH  079%=      5-min Rain = 0
KDO1 200520Z 26001KT M03/M06 A3032 RMK A01 T10321064  RH  079%=      5-min Rain = 0
KDO1 200521Z 25000KT M03/M06 A3031 RMK A01 T10321064  RH  079%=      5-min Rain = 0
KDO1 200522Z 00000KT M03/M06 A3031 RMK A01 T10331063  RH  079%=      5-min Rain = 0
KDO1 200523Z 00000KT M03/M06 A3031 RMK A01 T10341063  RH  080%=      5-min Rain = 0
KDO1 200524Z 30000KT M04/M06 A3031 RMK A01 T10351063  RH  081%=      5-min Rain = 0
KDO1 200525Z 30001KT M04/M06 A3031 RMK A01 T10351063  RH  081%=      5-min Rain = 0
KDO1 200526Z 29001KT M04/M06 A3032 RMK A01 T10361063  RH  081%=      5-min Rain = 0
KDO1 200527Z 28003KT M04/M06 A3032 RMK A01 T10371064  RH  082%=      5-min Rain = 0
KDO1 200528Z 27003KT M04/M06 A3032 RMK A01 T10361063  RH  082%=      5-min Rain = 0
KDO1 200529Z 26003KT M04/M06 A3032 RMK A01 T10361063  RH  082%=      5-min Rain = 0
KDO1 200530Z 25003KT M04/M06 A3032 RMK A01 T10371063  RH  082%=      5-min Rain = 0
KDO1 200531Z 26002KT M04/M06 A3032 RMK A01 T10381063  RH  083%=      5-min Rain = 0
KDO1 200532Z 29002KT M04/M06 A3033 RMK A01 T10381063  RH  083%=      5-min Rain = 0
KDO1 200533Z 33002KT M04/M06 A3033 RMK A01 T10371063  RH  082%=      5-min Rain = 0
KDO1 200534Z 33002KT M04/M06 A3033 RMK A01 T10361063  RH  082%=      5-min Rain = 0
KDO1 200535Z 33002KT M04/M06 A3033 RMK A01 T10361063  RH  081%=      5-min Rain = 0
KDO1 200536Z 34002KT M04/M06 A3032 RMK A01 T10351063  RH  081%=      5-min Rain = 0
KDO1 200537Z 33002KT M03/M06 A3033 RMK A01 T10341062  RH  081%=      5-min Rain = 0
KDO1 200538Z 33002KT M03/M06 A3033 RMK A01 T10341062  RH  081%=      5-min Rain = 0
KDO1 200539Z 33002KT M03/M06 A3033 RMK A01 T10341062  RH  081%=      5-min Rain = 0
KDO1 200540Z 33002KT M03/M06 A3033 RMK A01 T10341061  RH  081%=      5-min Rain = 0
KDO1 200541Z 34002KT M03/M06 A3033 RMK A01 T10341062  RH  082%=      5-min Rain = 0
KDO1 200542Z 00002KT M03/M06 A3033 RMK A01 T10341062  RH  081%=      5-min Rain = 0
KDO1 200543Z 03002KT M03/M06 A3033 RMK A01 T10341062  RH  081%=      5-min Rain = 0
KDO1 200544Z 04002KT M03/M06 A3033 RMK A01 T10341062  RH  081%=      5-min Rain = 0
KDO1 200545Z 05002KT M03/M06 A3033 RMK A01 T10341063  RH  080%=      5-min Rain = 0
KDO1 200546Z 06002KT M04/M07 A3033 RMK A01 T10361065  RH  081%=      5-min Rain = 0
KDO1 200547Z 06002KT M04/M07 A3033 RMK A01 T10391065  RH  082%=      5-min Rain = 0
KDO1 200548Z 06003KT M04/M07 A3032 RMK A01 T10401065  RH  083%=      5-min Rain = 0
KDO1 200549Z 05003KT M04/M07 A3032 RMK A01 T10411065  RH  083%=      5-min Rain = 0
KDO1 200550Z 04003KT M04/M07 A3032 RMK A01 T10421065  RH  084%=      5-min Rain = 0
KDO1 200551Z 04003KT M04/M07 A3031 RMK A01 T10441066  RH  085%=      5-min Rain = 0
KDO1 200552Z 04004KT M05/M07 A3031 RMK A01 T10451066  RH  085%=      5-min Rain = 0
KDO1 200553Z 05003KT M05/M07 A3031 RMK A01 T10461066  RH  086%=      5-min Rain = 0
KDO1 200554Z 05004KT M05/M07 A3031 RMK A01 T10461066  RH  086%=      5-min Rain = 0
KDO1 200555Z 05004KT M05/M07 A3031 RMK A01 T10471066  RH  086%=      5-min Rain = 0
KDO1 200556Z 05004KT M05/M07 A3031 RMK A01 T10481067  RH  087%=      5-min Rain = 0
KDO1 200557Z 04004KT M05/M07 A3031 RMK A01 T10491067  RH  087%=      5-min Rain = 0
KDO1 200558Z 04004KT M05/M07 A3031 RMK A01 T10501067  RH  087%=      5-min Rain = 0
KDO1 200559Z 04004KT M05/M07 A3031 RMK A01 T10501067  RH  088%=      5-min Rain = 0

Page generated in 0.118 seconds.